<?xml version="1.0" encoding="UTF-8"?>
<gpx version="1.1" creator="https://www.youtrack.es" xsi:schemaLocation="http://www.topografix.com/GPX/1/1 http://www.topografix.com/GPX/1/1/gpx.xsd http://www.garmin.com/xmlschemas/GpxExtensions/v3 http://www.garmin.com/xmlschemas/GpxExtensionsv3.xsd http://www.garmin.com/xmlschemas/TrackPointExtension/v1 http://www.garmin.com/xmlschemas/TrackPointExtensionv1.xsd" xmlns:gpxtpx="http://www.garmin.com/xmlschemas/TrackPointExtension/v1" xmlns:gpxx="http://www.garmin.com/xmlschemas/GpxExtensions/v3" xmlns:xsi="http://www.w3.org/2001/XMLSchema-instance">
  <metadata>
    <link href="https://www.youtrack.es">
      <text>YouTrack.es</text>
    </link>
    <time>2026-05-07T18:52:23Z</time>
  </metadata>
  <trk>
    <src>https://www.youtrack.es</src>
    <link href="https://www.youtrack.es/ruta/21596-canfranc-anayet-pombie">
      <text>YouTrack.es</text>
    </link>
    <trkseg>
      <trkpt lat="42.775828" lon="-0.512526">
        <ele>1368.345</ele>
        <time>2021-04-29T09:49:39Z</time>
      </trkpt>
      <trkpt lat="42.776206" lon="-0.512823">
        <ele>1365.847</ele>
        <time>2021-04-29T09:50:19Z</time>
      </trkpt>
      <trkpt lat="42.776493" lon="-0.512811">
        <ele>1371.911</ele>
        <time>2021-04-29T09:50:59Z</time>
      </trkpt>
      <trkpt lat="42.776655" lon="-0.512707">
        <ele>1374.808</ele>
        <time>2021-04-29T09:51:39Z</time>
      </trkpt>
      <trkpt lat="42.776770" lon="-0.512316">
        <ele>1377.271</ele>
        <time>2021-04-29T09:52:19Z</time>
      </trkpt>
      <trkpt lat="42.776661" lon="-0.511079">
        <ele>1382.055</ele>
        <time>2021-04-29T09:52:59Z</time>
      </trkpt>
      <trkpt lat="42.776126" lon="-0.509570">
        <ele>1372.980</ele>
        <time>2021-04-29T09:53:39Z</time>
      </trkpt>
      <trkpt lat="42.775932" lon="-0.507876">
        <ele>1374.892</ele>
        <time>2021-04-29T09:54:19Z</time>
      </trkpt>
      <trkpt lat="42.777368" lon="-0.505334">
        <ele>1386.597</ele>
        <time>2021-04-29T09:54:59Z</time>
      </trkpt>
      <trkpt lat="42.777367" lon="-0.504506">
        <ele>1386.775</ele>
        <time>2021-04-29T09:55:39Z</time>
      </trkpt>
      <trkpt lat="42.777737" lon="-0.504009">
        <ele>1391.457</ele>
        <time>2021-04-29T09:56:19Z</time>
      </trkpt>
      <trkpt lat="42.778169" lon="-0.503755">
        <ele>1394.790</ele>
        <time>2021-04-29T09:56:59Z</time>
      </trkpt>
      <trkpt lat="42.778790" lon="-0.503809">
        <ele>1402.555</ele>
        <time>2021-04-29T09:57:39Z</time>
      </trkpt>
      <trkpt lat="42.779062" lon="-0.503165">
        <ele>1408.207</ele>
        <time>2021-04-29T09:58:19Z</time>
      </trkpt>
      <trkpt lat="42.779761" lon="-0.502460">
        <ele>1419.217</ele>
        <time>2021-04-29T09:58:59Z</time>
      </trkpt>
      <trkpt lat="42.780006" lon="-0.502015">
        <ele>1417.508</ele>
        <time>2021-04-29T09:59:39Z</time>
      </trkpt>
      <trkpt lat="42.781169" lon="-0.501654">
        <ele>1438.642</ele>
        <time>2021-04-29T10:00:19Z</time>
      </trkpt>
      <trkpt lat="42.781948" lon="-0.501056">
        <ele>1443.986</ele>
        <time>2021-04-29T10:00:59Z</time>
      </trkpt>
      <trkpt lat="42.782145" lon="-0.500264">
        <ele>1449.351</ele>
        <time>2021-04-29T10:01:39Z</time>
      </trkpt>
      <trkpt lat="42.782935" lon="-0.499653">
        <ele>1462.373</ele>
        <time>2021-04-29T10:02:19Z</time>
      </trkpt>
      <trkpt lat="42.783704" lon="-0.498605">
        <ele>1473.878</ele>
        <time>2021-04-29T10:02:59Z</time>
      </trkpt>
      <trkpt lat="42.783983" lon="-0.498559">
        <ele>1478.786</ele>
        <time>2021-04-29T10:03:39Z</time>
      </trkpt>
      <trkpt lat="42.785463" lon="-0.496688">
        <ele>1490.718</ele>
        <time>2021-04-29T10:04:19Z</time>
      </trkpt>
      <trkpt lat="42.786249" lon="-0.496038">
        <ele>1495.231</ele>
        <time>2021-04-29T10:04:59Z</time>
      </trkpt>
      <trkpt lat="42.787402" lon="-0.492966">
        <ele>1497.333</ele>
        <time>2021-04-29T10:05:39Z</time>
      </trkpt>
      <trkpt lat="42.788172" lon="-0.492310">
        <ele>1506.323</ele>
        <time>2021-04-29T10:06:19Z</time>
      </trkpt>
      <trkpt lat="42.788985" lon="-0.490236">
        <ele>1513.715</ele>
        <time>2021-04-29T10:06:59Z</time>
      </trkpt>
      <trkpt lat="42.789095" lon="-0.489339">
        <ele>1517.208</ele>
        <time>2021-04-29T10:07:39Z</time>
      </trkpt>
      <trkpt lat="42.789549" lon="-0.488756">
        <ele>1526.110</ele>
        <time>2021-04-29T10:08:19Z</time>
      </trkpt>
      <trkpt lat="42.790054" lon="-0.487364">
        <ele>1532.124</ele>
        <time>2021-04-29T10:08:59Z</time>
      </trkpt>
      <trkpt lat="42.789712" lon="-0.482489">
        <ele>1559.579</ele>
        <time>2021-04-29T10:09:39Z</time>
      </trkpt>
      <trkpt lat="42.789812" lon="-0.481473">
        <ele>1572.431</ele>
        <time>2021-04-29T10:10:19Z</time>
      </trkpt>
      <trkpt lat="42.789907" lon="-0.481199">
        <ele>1573.416</ele>
        <time>2021-04-29T10:10:59Z</time>
      </trkpt>
      <trkpt lat="42.790425" lon="-0.480752">
        <ele>1583.594</ele>
        <time>2021-04-29T10:11:39Z</time>
      </trkpt>
      <trkpt lat="42.790236" lon="-0.480576">
        <ele>1592.156</ele>
        <time>2021-04-29T10:12:19Z</time>
      </trkpt>
      <trkpt lat="42.790370" lon="-0.480029">
        <ele>1607.049</ele>
        <time>2021-04-29T10:12:59Z</time>
      </trkpt>
      <trkpt lat="42.790585" lon="-0.479871">
        <ele>1609.925</ele>
        <time>2021-04-29T10:13:39Z</time>
      </trkpt>
      <trkpt lat="42.790634" lon="-0.479256">
        <ele>1621.526</ele>
        <time>2021-04-29T10:14:19Z</time>
      </trkpt>
      <trkpt lat="42.790854" lon="-0.479114">
        <ele>1620.708</ele>
        <time>2021-04-29T10:14:59Z</time>
      </trkpt>
      <trkpt lat="42.791084" lon="-0.478617">
        <ele>1629.608</ele>
        <time>2021-04-29T10:15:39Z</time>
      </trkpt>
      <trkpt lat="42.791533" lon="-0.478360">
        <ele>1626.419</ele>
        <time>2021-04-29T10:16:19Z</time>
      </trkpt>
      <trkpt lat="42.792386" lon="-0.476492">
        <ele>1650.213</ele>
        <time>2021-04-29T10:16:59Z</time>
      </trkpt>
      <trkpt lat="42.793585" lon="-0.475270">
        <ele>1671.898</ele>
        <time>2021-04-29T10:17:39Z</time>
      </trkpt>
      <trkpt lat="42.794949" lon="-0.473090">
        <ele>1692.270</ele>
        <time>2021-04-29T10:18:19Z</time>
      </trkpt>
      <trkpt lat="42.795521" lon="-0.470537">
        <ele>1710.655</ele>
        <time>2021-04-29T10:18:59Z</time>
      </trkpt>
      <trkpt lat="42.796667" lon="-0.468084">
        <ele>1711.883</ele>
        <time>2021-04-29T10:19:39Z</time>
      </trkpt>
      <trkpt lat="42.796705" lon="-0.467176">
        <ele>1713.345</ele>
        <time>2021-04-29T10:20:19Z</time>
      </trkpt>
      <trkpt lat="42.797283" lon="-0.464283">
        <ele>1723.288</ele>
        <time>2021-04-29T10:20:59Z</time>
      </trkpt>
      <trkpt lat="42.797249" lon="-0.463143">
        <ele>1729.235</ele>
        <time>2021-04-29T10:21:39Z</time>
      </trkpt>
      <trkpt lat="42.797042" lon="-0.462116">
        <ele>1740.886</ele>
        <time>2021-04-29T10:22:19Z</time>
      </trkpt>
      <trkpt lat="42.796539" lon="-0.461237">
        <ele>1755.014</ele>
        <time>2021-04-29T10:22:59Z</time>
      </trkpt>
      <trkpt lat="42.796171" lon="-0.460197">
        <ele>1762.408</ele>
        <time>2021-04-29T10:23:39Z</time>
      </trkpt>
      <trkpt lat="42.794729" lon="-0.457846">
        <ele>1787.350</ele>
        <time>2021-04-29T10:24:19Z</time>
      </trkpt>
      <trkpt lat="42.793226" lon="-0.454256">
        <ele>1815.184</ele>
        <time>2021-04-29T10:24:59Z</time>
      </trkpt>
      <trkpt lat="42.792578" lon="-0.453367">
        <ele>1835.569</ele>
        <time>2021-04-29T10:25:39Z</time>
      </trkpt>
      <trkpt lat="42.791662" lon="-0.452856">
        <ele>1848.051</ele>
        <time>2021-04-29T10:26:19Z</time>
      </trkpt>
      <trkpt lat="42.790667" lon="-0.451929">
        <ele>1859.346</ele>
        <time>2021-04-29T10:26:59Z</time>
      </trkpt>
      <trkpt lat="42.789896" lon="-0.451558">
        <ele>1867.594</ele>
        <time>2021-04-29T10:27:39Z</time>
      </trkpt>
      <trkpt lat="42.789605" lon="-0.451162">
        <ele>1865.576</ele>
        <time>2021-04-29T10:28:19Z</time>
      </trkpt>
      <trkpt lat="42.788711" lon="-0.451134">
        <ele>1866.879</ele>
        <time>2021-04-29T10:28:59Z</time>
      </trkpt>
      <trkpt lat="42.787658" lon="-0.449969">
        <ele>1866.712</ele>
        <time>2021-04-29T10:29:39Z</time>
      </trkpt>
      <trkpt lat="42.786645" lon="-0.449447">
        <ele>1889.732</ele>
        <time>2021-04-29T10:30:19Z</time>
      </trkpt>
      <trkpt lat="42.785766" lon="-0.448417">
        <ele>1914.005</ele>
        <time>2021-04-29T10:30:59Z</time>
      </trkpt>
      <trkpt lat="42.785618" lon="-0.448057">
        <ele>1913.908</ele>
        <time>2021-04-29T10:31:39Z</time>
      </trkpt>
      <trkpt lat="42.784931" lon="-0.447590">
        <ele>1924.058</ele>
        <time>2021-04-29T10:32:19Z</time>
      </trkpt>
      <trkpt lat="42.784533" lon="-0.447640">
        <ele>1931.442</ele>
        <time>2021-04-29T10:32:59Z</time>
      </trkpt>
      <trkpt lat="42.784185" lon="-0.446833">
        <ele>1948.937</ele>
        <time>2021-04-29T10:33:39Z</time>
      </trkpt>
      <trkpt lat="42.784010" lon="-0.447106">
        <ele>1952.559</ele>
        <time>2021-04-29T10:34:19Z</time>
      </trkpt>
      <trkpt lat="42.783835" lon="-0.447032">
        <ele>1961.734</ele>
        <time>2021-04-29T10:34:59Z</time>
      </trkpt>
      <trkpt lat="42.783660" lon="-0.446159">
        <ele>1981.262</ele>
        <time>2021-04-29T10:35:39Z</time>
      </trkpt>
      <trkpt lat="42.783509" lon="-0.446364">
        <ele>1987.564</ele>
        <time>2021-04-29T10:36:19Z</time>
      </trkpt>
      <trkpt lat="42.783470" lon="-0.446208">
        <ele>1991.637</ele>
        <time>2021-04-29T10:36:59Z</time>
      </trkpt>
      <trkpt lat="42.783331" lon="-0.446322">
        <ele>1998.946</ele>
        <time>2021-04-29T10:37:39Z</time>
      </trkpt>
      <trkpt lat="42.783084" lon="-0.446934">
        <ele>2019.188</ele>
        <time>2021-04-29T10:38:19Z</time>
      </trkpt>
      <trkpt lat="42.782919" lon="-0.446944">
        <ele>2032.316</ele>
        <time>2021-04-29T10:38:59Z</time>
      </trkpt>
      <trkpt lat="42.782916" lon="-0.445724">
        <ele>2042.308</ele>
        <time>2021-04-29T10:39:39Z</time>
      </trkpt>
      <trkpt lat="42.782686" lon="-0.445892">
        <ele>2062.591</ele>
        <time>2021-04-29T10:40:19Z</time>
      </trkpt>
      <trkpt lat="42.782556" lon="-0.446584">
        <ele>2066.855</ele>
        <time>2021-04-29T10:40:59Z</time>
      </trkpt>
      <trkpt lat="42.782210" lon="-0.447345">
        <ele>2083.120</ele>
        <time>2021-04-29T10:41:39Z</time>
      </trkpt>
      <trkpt lat="42.781939" lon="-0.447444">
        <ele>2093.182</ele>
        <time>2021-04-29T10:42:19Z</time>
      </trkpt>
      <trkpt lat="42.781934" lon="-0.448066">
        <ele>2100.737</ele>
        <time>2021-04-29T10:42:59Z</time>
      </trkpt>
      <trkpt lat="42.782233" lon="-0.448584">
        <ele>2113.695</ele>
        <time>2021-04-29T10:43:39Z</time>
      </trkpt>
      <trkpt lat="42.781613" lon="-0.449243">
        <ele>2142.567</ele>
        <time>2021-04-29T10:44:19Z</time>
      </trkpt>
      <trkpt lat="42.781423" lon="-0.449212">
        <ele>2145.780</ele>
        <time>2021-04-29T10:44:59Z</time>
      </trkpt>
      <trkpt lat="42.781242" lon="-0.449446">
        <ele>2155.174</ele>
        <time>2021-04-29T10:45:39Z</time>
      </trkpt>
      <trkpt lat="42.781419" lon="-0.449681">
        <ele>2163.156</ele>
        <time>2021-04-29T10:46:19Z</time>
      </trkpt>
      <trkpt lat="42.780980" lon="-0.449939">
        <ele>2177.921</ele>
        <time>2021-04-29T10:46:59Z</time>
      </trkpt>
      <trkpt lat="42.780681" lon="-0.449647">
        <ele>2185.908</ele>
        <time>2021-04-29T10:47:39Z</time>
      </trkpt>
      <trkpt lat="42.780496" lon="-0.449957">
        <ele>2199.144</ele>
        <time>2021-04-29T10:48:19Z</time>
      </trkpt>
      <trkpt lat="42.780184" lon="-0.449075">
        <ele>2213.758</ele>
        <time>2021-04-29T10:48:59Z</time>
      </trkpt>
      <trkpt lat="42.780139" lon="-0.448448">
        <ele>2215.343</ele>
        <time>2021-04-29T10:49:39Z</time>
      </trkpt>
      <trkpt lat="42.779691" lon="-0.447912">
        <ele>2226.745</ele>
        <time>2021-04-29T10:50:19Z</time>
      </trkpt>
      <trkpt lat="42.779467" lon="-0.447290">
        <ele>2229.780</ele>
        <time>2021-04-29T10:50:59Z</time>
      </trkpt>
      <trkpt lat="42.779691" lon="-0.446341">
        <ele>2224.778</ele>
        <time>2021-04-29T10:51:39Z</time>
      </trkpt>
      <trkpt lat="42.779438" lon="-0.445329">
        <ele>2228.640</ele>
        <time>2021-04-29T10:52:19Z</time>
      </trkpt>
      <trkpt lat="42.778947" lon="-0.445852">
        <ele>2229.273</ele>
        <time>2021-04-29T10:52:59Z</time>
      </trkpt>
      <trkpt lat="42.778404" lon="-0.446119">
        <ele>2234.186</ele>
        <time>2021-04-29T10:53:39Z</time>
      </trkpt>
      <trkpt lat="42.777911" lon="-0.446095">
        <ele>2237.760</ele>
        <time>2021-04-29T10:54:19Z</time>
      </trkpt>
      <trkpt lat="42.777755" lon="-0.445563">
        <ele>2230.126</ele>
        <time>2021-04-29T10:54:59Z</time>
      </trkpt>
      <trkpt lat="42.776932" lon="-0.446217">
        <ele>2233.908</ele>
        <time>2021-04-29T10:55:39Z</time>
      </trkpt>
      <trkpt lat="42.776566" lon="-0.445274">
        <ele>2236.495</ele>
        <time>2021-04-29T10:56:19Z</time>
      </trkpt>
      <trkpt lat="42.776722" lon="-0.444039">
        <ele>2230.199</ele>
        <time>2021-04-29T10:56:59Z</time>
      </trkpt>
      <trkpt lat="42.776357" lon="-0.443019">
        <ele>2233.584</ele>
        <time>2021-04-29T10:57:39Z</time>
      </trkpt>
      <trkpt lat="42.776247" lon="-0.442016">
        <ele>2235.226</ele>
        <time>2021-04-29T10:58:19Z</time>
      </trkpt>
      <trkpt lat="42.775680" lon="-0.441205">
        <ele>2226.381</ele>
        <time>2021-04-29T10:58:59Z</time>
      </trkpt>
      <trkpt lat="42.775682" lon="-0.440402">
        <ele>2211.829</ele>
        <time>2021-04-29T10:59:39Z</time>
      </trkpt>
      <trkpt lat="42.776081" lon="-0.439585">
        <ele>2202.511</ele>
        <time>2021-04-29T11:00:19Z</time>
      </trkpt>
      <trkpt lat="42.775938" lon="-0.437751">
        <ele>2176.414</ele>
        <time>2021-04-29T11:00:59Z</time>
      </trkpt>
      <trkpt lat="42.776193" lon="-0.437325">
        <ele>2172.555</ele>
        <time>2021-04-29T11:01:39Z</time>
      </trkpt>
      <trkpt lat="42.776430" lon="-0.436419">
        <ele>2170.207</ele>
        <time>2021-04-29T11:02:19Z</time>
      </trkpt>
      <trkpt lat="42.777408" lon="-0.434695">
        <ele>2149.617</ele>
        <time>2021-04-29T11:02:59Z</time>
      </trkpt>
      <trkpt lat="42.777667" lon="-0.433147">
        <ele>2114.408</ele>
        <time>2021-04-29T11:03:39Z</time>
      </trkpt>
      <trkpt lat="42.777958" lon="-0.432481">
        <ele>2108.632</ele>
        <time>2021-04-29T11:04:19Z</time>
      </trkpt>
      <trkpt lat="42.778634" lon="-0.432334">
        <ele>2104.916</ele>
        <time>2021-04-29T11:04:59Z</time>
      </trkpt>
      <trkpt lat="42.779226" lon="-0.431882">
        <ele>2100.831</ele>
        <time>2021-04-29T11:05:39Z</time>
      </trkpt>
      <trkpt lat="42.779827" lon="-0.431755">
        <ele>2101.153</ele>
        <time>2021-04-29T11:06:19Z</time>
      </trkpt>
      <trkpt lat="42.780169" lon="-0.431289">
        <ele>2088.998</ele>
        <time>2021-04-29T11:06:59Z</time>
      </trkpt>
      <trkpt lat="42.780559" lon="-0.431643">
        <ele>2108.526</ele>
        <time>2021-04-29T11:07:39Z</time>
      </trkpt>
      <trkpt lat="42.780500" lon="-0.432091">
        <ele>2122.838</ele>
        <time>2021-04-29T11:08:19Z</time>
      </trkpt>
      <trkpt lat="42.780688" lon="-0.431924">
        <ele>2118.581</ele>
        <time>2021-04-29T11:08:59Z</time>
      </trkpt>
      <trkpt lat="42.780994" lon="-0.432051">
        <ele>2127.199</ele>
        <time>2021-04-29T11:09:39Z</time>
      </trkpt>
      <trkpt lat="42.781193" lon="-0.431869">
        <ele>2129.607</ele>
        <time>2021-04-29T11:10:19Z</time>
      </trkpt>
      <trkpt lat="42.781572" lon="-0.432057">
        <ele>2137.327</ele>
        <time>2021-04-29T11:10:59Z</time>
      </trkpt>
      <trkpt lat="42.782461" lon="-0.433003">
        <ele>2171.008</ele>
        <time>2021-04-29T11:11:39Z</time>
      </trkpt>
      <trkpt lat="42.782598" lon="-0.433314">
        <ele>2177.626</ele>
        <time>2021-04-29T11:12:19Z</time>
      </trkpt>
      <trkpt lat="42.783949" lon="-0.433522">
        <ele>2189.330</ele>
        <time>2021-04-29T11:12:59Z</time>
      </trkpt>
      <trkpt lat="42.783956" lon="-0.433704">
        <ele>2189.135</ele>
        <time>2021-04-29T11:13:39Z</time>
      </trkpt>
      <trkpt lat="42.784477" lon="-0.433928">
        <ele>2184.517</ele>
        <time>2021-04-29T11:14:19Z</time>
      </trkpt>
      <trkpt lat="42.785108" lon="-0.433837">
        <ele>2185.692</ele>
        <time>2021-04-29T11:14:59Z</time>
      </trkpt>
      <trkpt lat="42.785679" lon="-0.434293">
        <ele>2188.710</ele>
        <time>2021-04-29T11:15:39Z</time>
      </trkpt>
      <trkpt lat="42.785641" lon="-0.434412">
        <ele>2189.592</ele>
        <time>2021-04-29T11:16:19Z</time>
      </trkpt>
      <trkpt lat="42.785758" lon="-0.434325">
        <ele>2188.795</ele>
        <time>2021-04-29T11:16:59Z</time>
      </trkpt>
      <trkpt lat="42.785954" lon="-0.434647">
        <ele>2189.461</ele>
        <time>2021-04-29T11:17:39Z</time>
      </trkpt>
      <trkpt lat="42.786267" lon="-0.434608">
        <ele>2188.621</ele>
        <time>2021-04-29T11:18:19Z</time>
      </trkpt>
      <trkpt lat="42.786235" lon="-0.435211">
        <ele>2181.813</ele>
        <time>2021-04-29T11:18:59Z</time>
      </trkpt>
      <trkpt lat="42.786608" lon="-0.436106">
        <ele>2169.708</ele>
        <time>2021-04-29T11:19:39Z</time>
      </trkpt>
      <trkpt lat="42.786924" lon="-0.436311">
        <ele>2171.943</ele>
        <time>2021-04-29T11:20:19Z</time>
      </trkpt>
      <trkpt lat="42.788808" lon="-0.438601">
        <ele>2173.097</ele>
        <time>2021-04-29T11:20:59Z</time>
      </trkpt>
      <trkpt lat="42.789765" lon="-0.439478">
        <ele>2162.012</ele>
        <time>2021-04-29T11:21:39Z</time>
      </trkpt>
      <trkpt lat="42.790399" lon="-0.439554">
        <ele>2150.834</ele>
        <time>2021-04-29T11:22:19Z</time>
      </trkpt>
      <trkpt lat="42.790744" lon="-0.440003">
        <ele>2144.679</ele>
        <time>2021-04-29T11:22:59Z</time>
      </trkpt>
      <trkpt lat="42.791255" lon="-0.439685">
        <ele>2143.467</ele>
        <time>2021-04-29T11:23:39Z</time>
      </trkpt>
      <trkpt lat="42.792610" lon="-0.439807">
        <ele>2143.989</ele>
        <time>2021-04-29T11:24:19Z</time>
      </trkpt>
      <trkpt lat="42.792914" lon="-0.439473">
        <ele>2144.492</ele>
        <time>2021-04-29T11:24:59Z</time>
      </trkpt>
      <trkpt lat="42.793575" lon="-0.437615">
        <ele>2175.065</ele>
        <time>2021-04-29T11:25:39Z</time>
      </trkpt>
      <trkpt lat="42.793709" lon="-0.437439">
        <ele>2174.168</ele>
        <time>2021-04-29T11:26:19Z</time>
      </trkpt>
      <trkpt lat="42.793901" lon="-0.437445">
        <ele>2175.914</ele>
        <time>2021-04-29T11:26:59Z</time>
      </trkpt>
      <trkpt lat="42.794753" lon="-0.438271">
        <ele>2181.208</ele>
        <time>2021-04-29T11:27:39Z</time>
      </trkpt>
      <trkpt lat="42.794935" lon="-0.439036">
        <ele>2180.763</ele>
        <time>2021-04-29T11:28:19Z</time>
      </trkpt>
      <trkpt lat="42.795413" lon="-0.439356">
        <ele>2198.477</ele>
        <time>2021-04-29T11:28:59Z</time>
      </trkpt>
      <trkpt lat="42.795521" lon="-0.440026">
        <ele>2210.042</ele>
        <time>2021-04-29T11:29:39Z</time>
      </trkpt>
      <trkpt lat="42.795440" lon="-0.440617">
        <ele>2203.914</ele>
        <time>2021-04-29T11:30:19Z</time>
      </trkpt>
      <trkpt lat="42.795481" lon="-0.440499">
        <ele>2204.399</ele>
        <time>2021-04-29T11:30:59Z</time>
      </trkpt>
      <trkpt lat="42.795918" lon="-0.441447">
        <ele>2193.437</ele>
        <time>2021-04-29T11:31:39Z</time>
      </trkpt>
      <trkpt lat="42.796370" lon="-0.441766">
        <ele>2186.669</ele>
        <time>2021-04-29T11:32:19Z</time>
      </trkpt>
      <trkpt lat="42.796487" lon="-0.442651">
        <ele>2195.212</ele>
        <time>2021-04-29T11:32:59Z</time>
      </trkpt>
      <trkpt lat="42.797371" lon="-0.443021">
        <ele>2194.174</ele>
        <time>2021-04-29T11:33:39Z</time>
      </trkpt>
      <trkpt lat="42.797598" lon="-0.442901">
        <ele>2189.156</ele>
        <time>2021-04-29T11:34:19Z</time>
      </trkpt>
      <trkpt lat="42.797976" lon="-0.442235">
        <ele>2162.421</ele>
        <time>2021-04-29T11:34:59Z</time>
      </trkpt>
      <trkpt lat="42.798057" lon="-0.441241">
        <ele>2131.108</ele>
        <time>2021-04-29T11:35:39Z</time>
      </trkpt>
      <trkpt lat="42.798286" lon="-0.441011">
        <ele>2120.694</ele>
        <time>2021-04-29T11:36:19Z</time>
      </trkpt>
      <trkpt lat="42.798713" lon="-0.441001">
        <ele>2112.838</ele>
        <time>2021-04-29T11:36:59Z</time>
      </trkpt>
      <trkpt lat="42.798657" lon="-0.440492">
        <ele>2096.413</ele>
        <time>2021-04-29T11:37:39Z</time>
      </trkpt>
      <trkpt lat="42.798804" lon="-0.440156">
        <ele>2091.365</ele>
        <time>2021-04-29T11:38:19Z</time>
      </trkpt>
      <trkpt lat="42.799397" lon="-0.439524">
        <ele>2078.780</ele>
        <time>2021-04-29T11:38:59Z</time>
      </trkpt>
      <trkpt lat="42.799724" lon="-0.437607">
        <ele>2042.478</ele>
        <time>2021-04-29T11:39:39Z</time>
      </trkpt>
      <trkpt lat="42.800466" lon="-0.435595">
        <ele>1989.060</ele>
        <time>2021-04-29T11:40:19Z</time>
      </trkpt>
      <trkpt lat="42.801033" lon="-0.434693">
        <ele>1964.273</ele>
        <time>2021-04-29T11:40:59Z</time>
      </trkpt>
      <trkpt lat="42.801352" lon="-0.433538">
        <ele>1950.148</ele>
        <time>2021-04-29T11:41:39Z</time>
      </trkpt>
      <trkpt lat="42.801726" lon="-0.433079">
        <ele>1935.661</ele>
        <time>2021-04-29T11:42:19Z</time>
      </trkpt>
      <trkpt lat="42.802463" lon="-0.430887">
        <ele>1893.417</ele>
        <time>2021-04-29T11:42:59Z</time>
      </trkpt>
      <trkpt lat="42.802959" lon="-0.430085">
        <ele>1869.808</ele>
        <time>2021-04-29T11:43:39Z</time>
      </trkpt>
      <trkpt lat="42.803481" lon="-0.428691">
        <ele>1850.211</ele>
        <time>2021-04-29T11:44:19Z</time>
      </trkpt>
      <trkpt lat="42.803598" lon="-0.427563">
        <ele>1848.925</ele>
        <time>2021-04-29T11:44:59Z</time>
      </trkpt>
      <trkpt lat="42.804123" lon="-0.427067">
        <ele>1842.440</ele>
        <time>2021-04-29T11:45:39Z</time>
      </trkpt>
      <trkpt lat="42.804801" lon="-0.426004">
        <ele>1817.152</ele>
        <time>2021-04-29T11:46:19Z</time>
      </trkpt>
      <trkpt lat="42.805280" lon="-0.424034">
        <ele>1805.027</ele>
        <time>2021-04-29T11:46:59Z</time>
      </trkpt>
      <trkpt lat="42.806516" lon="-0.423382">
        <ele>1808.135</ele>
        <time>2021-04-29T11:47:39Z</time>
      </trkpt>
      <trkpt lat="42.806831" lon="-0.423446">
        <ele>1809.847</ele>
        <time>2021-04-29T11:48:19Z</time>
      </trkpt>
      <trkpt lat="42.807491" lon="-0.423991">
        <ele>1803.370</ele>
        <time>2021-04-29T11:48:59Z</time>
      </trkpt>
      <trkpt lat="42.813887" lon="-0.421220">
        <ele>1711.497</ele>
        <time>2021-04-29T11:49:39Z</time>
      </trkpt>
      <trkpt lat="42.813867" lon="-0.421104">
        <ele>1711.223</ele>
        <time>2021-04-29T11:50:19Z</time>
      </trkpt>
      <trkpt lat="42.814108" lon="-0.421270">
        <ele>1710.825</ele>
        <time>2021-04-29T11:50:59Z</time>
      </trkpt>
      <trkpt lat="42.814521" lon="-0.421266">
        <ele>1714.208</ele>
        <time>2021-04-29T11:51:39Z</time>
      </trkpt>
      <trkpt lat="42.814724" lon="-0.421635">
        <ele>1723.796</ele>
        <time>2021-04-29T11:52:19Z</time>
      </trkpt>
      <trkpt lat="42.815002" lon="-0.421284">
        <ele>1729.390</ele>
        <time>2021-04-29T11:52:59Z</time>
      </trkpt>
      <trkpt lat="42.815350" lon="-0.421700">
        <ele>1736.075</ele>
        <time>2021-04-29T11:53:39Z</time>
      </trkpt>
      <trkpt lat="42.816855" lon="-0.422091">
        <ele>1756.937</ele>
        <time>2021-04-29T11:54:19Z</time>
      </trkpt>
      <trkpt lat="42.817821" lon="-0.423596">
        <ele>1775.322</ele>
        <time>2021-04-29T11:54:59Z</time>
      </trkpt>
      <trkpt lat="42.818216" lon="-0.423981">
        <ele>1786.420</ele>
        <time>2021-04-29T11:55:39Z</time>
      </trkpt>
      <trkpt lat="42.818415" lon="-0.424057">
        <ele>1791.692</ele>
        <time>2021-04-29T11:56:19Z</time>
      </trkpt>
      <trkpt lat="42.819019" lon="-0.423906">
        <ele>1800.165</ele>
        <time>2021-04-29T11:56:59Z</time>
      </trkpt>
      <trkpt lat="42.819169" lon="-0.424102">
        <ele>1803.322</ele>
        <time>2021-04-29T11:57:39Z</time>
      </trkpt>
      <trkpt lat="42.819098" lon="-0.424430">
        <ele>1806.362</ele>
        <time>2021-04-29T11:58:19Z</time>
      </trkpt>
      <trkpt lat="42.819333" lon="-0.425193">
        <ele>1812.108</ele>
        <time>2021-04-29T11:58:59Z</time>
      </trkpt>
      <trkpt lat="42.819760" lon="-0.425311">
        <ele>1825.308</ele>
        <time>2021-04-29T11:59:39Z</time>
      </trkpt>
      <trkpt lat="42.820297" lon="-0.426651">
        <ele>1854.859</ele>
        <time>2021-04-29T12:00:19Z</time>
      </trkpt>
      <trkpt lat="42.821640" lon="-0.428014">
        <ele>1893.193</ele>
        <time>2021-04-29T12:00:59Z</time>
      </trkpt>
      <trkpt lat="42.822443" lon="-0.427040">
        <ele>1923.748</ele>
        <time>2021-04-29T12:01:39Z</time>
      </trkpt>
      <trkpt lat="42.822893" lon="-0.425837">
        <ele>1937.120</ele>
        <time>2021-04-29T12:02:19Z</time>
      </trkpt>
      <trkpt lat="42.823114" lon="-0.425628">
        <ele>1945.545</ele>
        <time>2021-04-29T12:02:59Z</time>
      </trkpt>
      <trkpt lat="42.823003" lon="-0.427857">
        <ele>1973.113</ele>
        <time>2021-04-29T12:03:39Z</time>
      </trkpt>
      <trkpt lat="42.823309" lon="-0.429139">
        <ele>1990.515</ele>
        <time>2021-04-29T12:04:19Z</time>
      </trkpt>
      <trkpt lat="42.823503" lon="-0.428559">
        <ele>2005.818</ele>
        <time>2021-04-29T12:04:59Z</time>
      </trkpt>
      <trkpt lat="42.824157" lon="-0.427719">
        <ele>2024.951</ele>
        <time>2021-04-29T12:05:39Z</time>
      </trkpt>
      <trkpt lat="42.824151" lon="-0.428423">
        <ele>2038.901</ele>
        <time>2021-04-29T12:06:19Z</time>
      </trkpt>
      <trkpt lat="42.824999" lon="-0.426957">
        <ele>2063.311</ele>
        <time>2021-04-29T12:06:59Z</time>
      </trkpt>
      <trkpt lat="42.825265" lon="-0.426186">
        <ele>2072.608</ele>
        <time>2021-04-29T12:07:39Z</time>
      </trkpt>
      <trkpt lat="42.825738" lon="-0.426495">
        <ele>2086.672</ele>
        <time>2021-04-29T12:08:19Z</time>
      </trkpt>
      <trkpt lat="42.825935" lon="-0.425508">
        <ele>2098.426</ele>
        <time>2021-04-29T12:08:59Z</time>
      </trkpt>
      <trkpt lat="42.826811" lon="-0.426026">
        <ele>2107.311</ele>
        <time>2021-04-29T12:09:39Z</time>
      </trkpt>
      <trkpt lat="42.827666" lon="-0.427209">
        <ele>2099.483</ele>
        <time>2021-04-29T12:10:19Z</time>
      </trkpt>
      <trkpt lat="42.828046" lon="-0.427275">
        <ele>2093.178</ele>
        <time>2021-04-29T12:10:59Z</time>
      </trkpt>
      <trkpt lat="42.828149" lon="-0.427517">
        <ele>2096.966</ele>
        <time>2021-04-29T12:11:39Z</time>
      </trkpt>
      <trkpt lat="42.828966" lon="-0.427348">
        <ele>2085.968</ele>
        <time>2021-04-29T12:12:19Z</time>
      </trkpt>
      <trkpt lat="42.829157" lon="-0.427462">
        <ele>2089.491</ele>
        <time>2021-04-29T12:12:59Z</time>
      </trkpt>
      <trkpt lat="42.829683" lon="-0.426702">
        <ele>2072.076</ele>
        <time>2021-04-29T12:13:39Z</time>
      </trkpt>
      <trkpt lat="42.829924" lon="-0.426593">
        <ele>2070.290</ele>
        <time>2021-04-29T12:14:19Z</time>
      </trkpt>
      <trkpt lat="42.830407" lon="-0.426894">
        <ele>2072.819</ele>
        <time>2021-04-29T12:14:59Z</time>
      </trkpt>
      <trkpt lat="42.830748" lon="-0.426778">
        <ele>2062.808</ele>
        <time>2021-04-29T12:15:39Z</time>
      </trkpt>
      <trkpt lat="42.831663" lon="-0.427208">
        <ele>2061.924</ele>
        <time>2021-04-29T12:16:19Z</time>
      </trkpt>
      <trkpt lat="42.833012" lon="-0.427289">
        <ele>2046.418</ele>
        <time>2021-04-29T12:16:59Z</time>
      </trkpt>
      <trkpt lat="42.833641" lon="-0.427582">
        <ele>2053.533</ele>
        <time>2021-04-29T12:17:39Z</time>
      </trkpt>
      <trkpt lat="42.834034" lon="-0.427586">
        <ele>2049.455</ele>
        <time>2021-04-29T12:18:19Z</time>
      </trkpt>
      <trkpt lat="42.834516" lon="-0.427157">
        <ele>2034.650</ele>
        <time>2021-04-29T12:18:59Z</time>
      </trkpt>
      <trkpt lat="42.835390" lon="-0.427057">
        <ele>2030.078</ele>
        <time>2021-04-29T12:19:39Z</time>
      </trkpt>
      <trkpt lat="42.835533" lon="-0.426852">
        <ele>2027.541</ele>
        <time>2021-04-29T09:50:12Z</time>
      </trkpt>
      <trkpt lat="42.836082" lon="-0.427276">
        <ele>2028.081</ele>
        <time>2021-04-29T09:50:52Z</time>
      </trkpt>
      <trkpt lat="42.836384" lon="-0.427908">
        <ele>2030.909</ele>
        <time>2021-04-29T09:51:32Z</time>
      </trkpt>
      <trkpt lat="42.836666" lon="-0.427816">
        <ele>2031.908</ele>
        <time>2021-04-29T09:52:12Z</time>
      </trkpt>
      <trkpt lat="42.837070" lon="-0.428578">
        <ele>2031.090</ele>
        <time>2021-04-29T09:52:52Z</time>
      </trkpt>
      <trkpt lat="42.837177" lon="-0.429212">
        <ele>2029.340</ele>
        <time>2021-04-29T09:53:32Z</time>
      </trkpt>
      <trkpt lat="42.838123" lon="-0.429006">
        <ele>2028.999</ele>
        <time>2021-04-29T09:54:12Z</time>
      </trkpt>
      <trkpt lat="42.838757" lon="-0.430450">
        <ele>2038.936</ele>
        <time>2021-04-29T09:54:52Z</time>
      </trkpt>
      <trkpt lat="42.839580" lon="-0.430819">
        <ele>2047.871</ele>
        <time>2021-04-29T09:55:32Z</time>
      </trkpt>
      <trkpt lat="42.840030" lon="-0.430830">
        <ele>2051.434</ele>
        <time>2021-04-29T09:56:12Z</time>
      </trkpt>
      <trkpt lat="42.840458" lon="-0.430619">
        <ele>2054.373</ele>
        <time>2021-04-29T09:56:52Z</time>
      </trkpt>
      <trkpt lat="42.841522" lon="-0.429546">
        <ele>2059.893</ele>
        <time>2021-04-29T09:57:32Z</time>
      </trkpt>
      <trkpt lat="42.842514" lon="-0.428157">
        <ele>2086.995</ele>
        <time>2021-04-29T09:58:12Z</time>
      </trkpt>
      <trkpt lat="42.842820" lon="-0.427061">
        <ele>2092.149</ele>
        <time>2021-04-29T09:58:52Z</time>
      </trkpt>
      <trkpt lat="42.843570" lon="-0.426132">
        <ele>2109.623</ele>
        <time>2021-04-29T09:59:32Z</time>
      </trkpt>
      <trkpt lat="42.843983" lon="-0.425854">
        <ele>2115.908</ele>
        <time>2021-04-29T10:00:12Z</time>
      </trkpt>
      <trkpt lat="42.844696" lon="-0.424810">
        <ele>2128.735</ele>
        <time>2021-04-29T10:00:52Z</time>
      </trkpt>
      <trkpt lat="42.845600" lon="-0.424774">
        <ele>2134.195</ele>
        <time>2021-04-29T10:01:32Z</time>
      </trkpt>
      <trkpt lat="42.847004" lon="-0.423427">
        <ele>2124.894</ele>
        <time>2021-04-29T10:02:12Z</time>
      </trkpt>
      <trkpt lat="42.847763" lon="-0.422282">
        <ele>2081.361</ele>
        <time>2021-04-29T10:02:52Z</time>
      </trkpt>
      <trkpt lat="42.848137" lon="-0.421972">
        <ele>2071.066</ele>
        <time>2021-04-29T10:03:32Z</time>
      </trkpt>
      <trkpt lat="42.848812" lon="-0.422076">
        <ele>2063.889</ele>
        <time>2021-04-29T10:04:12Z</time>
      </trkpt>
      <trkpt lat="42.849094" lon="-0.421897">
        <ele>2058.728</ele>
        <time>2021-04-29T10:04:52Z</time>
      </trkpt>
      <trkpt lat="42.849407" lon="-0.421907">
        <ele>2049.238</ele>
        <time>2021-04-29T10:05:32Z</time>
      </trkpt>
      <trkpt lat="42.849780" lon="-0.421512">
        <ele>2042.245</ele>
        <time>2021-04-29T10:06:12Z</time>
      </trkpt>
      <trkpt lat="42.850210" lon="-0.422001">
        <ele>2023.347</ele>
        <time>2021-04-29T10:06:52Z</time>
      </trkpt>
      <trkpt lat="42.850610" lon="-0.422070">
        <ele>2016.911</ele>
        <time>2021-04-29T10:07:32Z</time>
      </trkpt>
      <trkpt lat="42.850723" lon="-0.422218">
        <ele>2014.408</ele>
        <time>2021-04-29T10:08:12Z</time>
      </trkpt>
      <trkpt lat="42.850494" lon="-0.422460">
        <ele>2015.570</ele>
        <time>2021-04-29T10:08:52Z</time>
      </trkpt>
      <trkpt lat="42.850704" lon="-0.422583">
        <ele>2009.760</ele>
        <time>2021-04-29T10:09:32Z</time>
      </trkpt>
      <trkpt lat="42.850570" lon="-0.422910">
        <ele>2007.929</ele>
        <time>2021-04-29T10:10:12Z</time>
      </trkpt>
      <trkpt lat="42.850792" lon="-0.422872">
        <ele>2005.126</ele>
        <time>2021-04-29T10:10:52Z</time>
      </trkpt>
      <trkpt lat="42.850620" lon="-0.423204">
        <ele>2005.451</ele>
        <time>2021-04-29T10:11:32Z</time>
      </trkpt>
      <trkpt lat="42.851160" lon="-0.423172">
        <ele>2003.214</ele>
        <time>2021-04-29T10:12:12Z</time>
      </trkpt>
      <trkpt lat="42.850983" lon="-0.423686">
        <ele>2004.553</ele>
        <time>2021-04-29T10:12:52Z</time>
      </trkpt>
      <trkpt lat="42.852375" lon="-0.423828">
        <ele>1969.033</ele>
        <time>2021-04-29T10:13:32Z</time>
      </trkpt>
      <trkpt lat="42.853245" lon="-0.423549">
        <ele>1938.816</ele>
        <time>2021-04-29T10:14:12Z</time>
      </trkpt>
      <trkpt lat="42.854060" lon="-0.423515">
        <ele>1912.376</ele>
        <time>2021-04-29T10:14:52Z</time>
      </trkpt>
      <trkpt lat="42.857162" lon="-0.425860">
        <ele>1898.813</ele>
        <time>2021-04-29T10:15:32Z</time>
      </trkpt>
      <trkpt lat="42.857826" lon="-0.426095">
        <ele>1895.408</ele>
        <time>2021-04-29T10:16:12Z</time>
      </trkpt>
      <trkpt lat="42.859276" lon="-0.427873">
        <ele>1853.547</ele>
        <time>2021-04-29T10:16:52Z</time>
      </trkpt>
      <trkpt lat="42.859707" lon="-0.428125">
        <ele>1846.217</ele>
        <time>2021-04-29T10:17:32Z</time>
      </trkpt>
      <trkpt lat="42.859910" lon="-0.427498">
        <ele>1844.576</ele>
        <time>2021-04-29T10:18:12Z</time>
      </trkpt>
      <trkpt lat="42.859936" lon="-0.427783">
        <ele>1842.813</ele>
        <time>2021-04-29T10:18:52Z</time>
      </trkpt>
      <trkpt lat="42.860153" lon="-0.427748">
        <ele>1841.058</ele>
        <time>2021-04-29T10:19:32Z</time>
      </trkpt>
      <trkpt lat="42.860090" lon="-0.427929">
        <ele>1841.161</ele>
        <time>2021-04-29T10:20:12Z</time>
      </trkpt>
      <trkpt lat="42.860344" lon="-0.428329">
        <ele>1834.580</ele>
        <time>2021-04-29T10:20:52Z</time>
      </trkpt>
      <trkpt lat="42.860577" lon="-0.428559">
        <ele>1830.470</ele>
        <time>2021-04-29T10:21:32Z</time>
      </trkpt>
      <trkpt lat="42.860830" lon="-0.428581">
        <ele>1827.665</ele>
        <time>2021-04-29T10:22:12Z</time>
      </trkpt>
      <trkpt lat="42.861270" lon="-0.429098">
        <ele>1817.268</ele>
        <time>2021-04-29T10:22:52Z</time>
      </trkpt>
      <trkpt lat="42.861237" lon="-0.428943">
        <ele>1819.314</ele>
        <time>2021-04-29T10:23:32Z</time>
      </trkpt>
      <trkpt lat="42.862263" lon="-0.429575">
        <ele>1815.208</ele>
        <time>2021-04-29T10:24:12Z</time>
      </trkpt>
      <trkpt lat="42.863125" lon="-0.429714">
        <ele>1810.432</ele>
        <time>2021-04-29T10:24:52Z</time>
      </trkpt>
      <trkpt lat="42.863674" lon="-0.429515">
        <ele>1803.062</ele>
        <time>2021-04-29T10:25:32Z</time>
      </trkpt>
      <trkpt lat="42.864895" lon="-0.429524">
        <ele>1749.531</ele>
        <time>2021-04-29T10:26:12Z</time>
      </trkpt>
      <trkpt lat="42.866352" lon="-0.430231">
        <ele>1721.088</ele>
        <time>2021-04-29T10:26:52Z</time>
      </trkpt>
      <trkpt lat="42.867040" lon="-0.430900">
        <ele>1702.653</ele>
        <time>2021-04-29T10:27:32Z</time>
      </trkpt>
      <trkpt lat="42.867695" lon="-0.432571">
        <ele>1699.116</ele>
        <time>2021-04-29T10:28:12Z</time>
      </trkpt>
      <trkpt lat="42.869007" lon="-0.433874">
        <ele>1682.975</ele>
        <time>2021-04-29T10:28:52Z</time>
      </trkpt>
      <trkpt lat="42.869430" lon="-0.433801">
        <ele>1680.025</ele>
        <time>2021-04-29T10:29:32Z</time>
      </trkpt>
      <trkpt lat="42.869717" lon="-0.433972">
        <ele>1678.088</ele>
        <time>2021-04-29T10:30:12Z</time>
      </trkpt>
      <trkpt lat="42.870330" lon="-0.435214">
        <ele>1673.824</ele>
        <time>2021-04-29T10:30:52Z</time>
      </trkpt>
      <trkpt lat="42.869946" lon="-0.437138">
        <ele>1659.826</ele>
        <time>2021-04-29T10:31:32Z</time>
      </trkpt>
      <trkpt lat="42.870274" lon="-0.437900">
        <ele>1654.608</ele>
        <time>2021-04-29T10:32:12Z</time>
      </trkpt>
      <trkpt lat="42.870358" lon="-0.438846">
        <ele>1630.454</ele>
        <time>2021-04-29T10:32:52Z</time>
      </trkpt>
      <trkpt lat="42.869900" lon="-0.439199">
        <ele>1601.144</ele>
        <time>2021-04-29T10:33:32Z</time>
      </trkpt>
      <trkpt lat="42.869568" lon="-0.439198">
        <ele>1594.573</ele>
        <time>2021-04-29T10:34:12Z</time>
      </trkpt>
      <trkpt lat="42.869130" lon="-0.439640">
        <ele>1583.870</ele>
        <time>2021-04-29T10:34:52Z</time>
      </trkpt>
      <trkpt lat="42.869040" lon="-0.440328">
        <ele>1578.335</ele>
        <time>2021-04-29T10:35:32Z</time>
      </trkpt>
      <trkpt lat="42.868862" lon="-0.440446">
        <ele>1576.068</ele>
        <time>2021-04-29T10:36:12Z</time>
      </trkpt>
      <trkpt lat="42.868877" lon="-0.440676">
        <ele>1573.867</ele>
        <time>2021-04-29T10:36:52Z</time>
      </trkpt>
      <trkpt lat="42.869064" lon="-0.440798">
        <ele>1575.317</ele>
        <time>2021-04-29T10:37:32Z</time>
      </trkpt>
      <trkpt lat="42.868958" lon="-0.441353">
        <ele>1557.741</ele>
        <time>2021-04-29T10:38:12Z</time>
      </trkpt>
      <trkpt lat="42.868675" lon="-0.441322">
        <ele>1557.881</ele>
        <time>2021-04-29T10:38:52Z</time>
      </trkpt>
      <trkpt lat="42.867985" lon="-0.442122">
        <ele>1546.409</ele>
        <time>2021-04-29T10:39:32Z</time>
      </trkpt>
      <trkpt lat="42.868103" lon="-0.442765">
        <ele>1534.608</ele>
        <time>2021-04-29T10:40:12Z</time>
      </trkpt>
      <trkpt lat="42.868240" lon="-0.442821">
        <ele>1533.580</ele>
        <time>2021-04-29T10:40:52Z</time>
      </trkpt>
      <trkpt lat="42.868450" lon="-0.442517">
        <ele>1535.870</ele>
        <time>2021-04-29T10:41:32Z</time>
      </trkpt>
      <trkpt lat="42.868706" lon="-0.442682">
        <ele>1533.289</ele>
        <time>2021-04-29T10:42:12Z</time>
      </trkpt>
      <trkpt lat="42.869010" lon="-0.442520">
        <ele>1535.586</ele>
        <time>2021-04-29T10:42:52Z</time>
      </trkpt>
      <trkpt lat="42.869100" lon="-0.444780">
        <ele>1479.321</ele>
        <time>2021-04-29T10:43:32Z</time>
      </trkpt>
      <trkpt lat="42.868748" lon="-0.446819">
        <ele>1450.754</ele>
        <time>2021-04-29T10:44:12Z</time>
      </trkpt>
      <trkpt lat="42.868490" lon="-0.446936">
        <ele>1434.963</ele>
        <time>2021-04-29T10:44:52Z</time>
      </trkpt>
      <trkpt lat="42.868927" lon="-0.447370">
        <ele>1422.973</ele>
        <time>2021-04-29T10:45:32Z</time>
      </trkpt>
      <trkpt lat="42.868816" lon="-0.447678">
        <ele>1421.384</ele>
        <time>2021-04-29T10:46:12Z</time>
      </trkpt>
      <trkpt lat="42.868954" lon="-0.447318">
        <ele>1421.607</ele>
        <time>2021-04-29T10:46:52Z</time>
      </trkpt>
      <trkpt lat="42.869210" lon="-0.447154">
        <ele>1418.817</ele>
        <time>2021-04-29T10:47:32Z</time>
      </trkpt>
      <trkpt lat="42.869230" lon="-0.447668">
        <ele>1400.408</ele>
        <time>2021-04-29T10:48:12Z</time>
      </trkpt>
      <trkpt lat="42.869580" lon="-0.447641">
        <ele>1396.854</ele>
        <time>2021-04-29T10:48:52Z</time>
      </trkpt>
      <trkpt lat="42.870556" lon="-0.446944">
        <ele>1380.654</ele>
        <time>2021-04-29T10:49:32Z</time>
      </trkpt>
      <trkpt lat="42.871147" lon="-0.446708">
        <ele>1375.733</ele>
        <time>2021-04-29T10:50:12Z</time>
      </trkpt>
      <trkpt lat="42.871273" lon="-0.446809">
        <ele>1361.980</ele>
        <time>2021-04-29T10:50:52Z</time>
      </trkpt>
      <trkpt lat="42.871166" lon="-0.447287">
        <ele>1357.275</ele>
        <time>2021-04-29T10:51:32Z</time>
      </trkpt>
      <trkpt lat="42.870130" lon="-0.448027">
        <ele>1361.118</ele>
        <time>2021-04-29T10:52:12Z</time>
      </trkpt>
      <trkpt lat="42.869816" lon="-0.448454">
        <ele>1375.547</ele>
        <time>2021-04-29T10:52:52Z</time>
      </trkpt>
      <trkpt lat="42.869530" lon="-0.448376">
        <ele>1390.677</ele>
        <time>2021-04-29T10:53:32Z</time>
      </trkpt>
      <trkpt lat="42.869453" lon="-0.448128">
        <ele>1396.187</ele>
        <time>2021-04-29T10:54:12Z</time>
      </trkpt>
      <trkpt lat="42.869450" lon="-0.448830">
        <ele>1393.842</ele>
        <time>2021-04-29T10:54:52Z</time>
      </trkpt>
      <trkpt lat="42.869156" lon="-0.450337">
        <ele>1393.826</ele>
        <time>2021-04-29T10:55:32Z</time>
      </trkpt>
      <trkpt lat="42.869186" lon="-0.452679">
        <ele>1413.208</ele>
        <time>2021-04-29T10:56:12Z</time>
      </trkpt>
      <trkpt lat="42.868896" lon="-0.453874">
        <ele>1414.814</ele>
        <time>2021-04-29T10:56:52Z</time>
      </trkpt>
      <trkpt lat="42.869324" lon="-0.454770">
        <ele>1433.954</ele>
        <time>2021-04-29T10:57:32Z</time>
      </trkpt>
      <trkpt lat="42.869114" lon="-0.455352">
        <ele>1450.283</ele>
        <time>2021-04-29T10:58:12Z</time>
      </trkpt>
      <trkpt lat="42.869130" lon="-0.455805">
        <ele>1456.230</ele>
        <time>2021-04-29T10:58:52Z</time>
      </trkpt>
      <trkpt lat="42.869420" lon="-0.456365">
        <ele>1462.455</ele>
        <time>2021-04-29T10:59:32Z</time>
      </trkpt>
      <trkpt lat="42.869770" lon="-0.456470">
        <ele>1460.328</ele>
        <time>2021-04-29T11:00:12Z</time>
      </trkpt>
      <trkpt lat="42.869392" lon="-0.457114">
        <ele>1465.367</ele>
        <time>2021-04-29T11:00:52Z</time>
      </trkpt>
      <trkpt lat="42.869250" lon="-0.457039">
        <ele>1462.847</ele>
        <time>2021-04-29T11:01:32Z</time>
      </trkpt>
      <trkpt lat="42.869095" lon="-0.457157">
        <ele>1462.859</ele>
        <time>2021-04-29T11:02:12Z</time>
      </trkpt>
      <trkpt lat="42.868590" lon="-0.457725">
        <ele>1467.003</ele>
        <time>2021-04-29T11:02:52Z</time>
      </trkpt>
      <trkpt lat="42.868780" lon="-0.459903">
        <ele>1525.423</ele>
        <time>2021-04-29T11:03:32Z</time>
      </trkpt>
      <trkpt lat="42.868620" lon="-0.460837">
        <ele>1543.908</ele>
        <time>2021-04-29T11:04:12Z</time>
      </trkpt>
      <trkpt lat="42.868664" lon="-0.461276">
        <ele>1547.911</ele>
        <time>2021-04-29T11:04:52Z</time>
      </trkpt>
      <trkpt lat="42.868940" lon="-0.461791">
        <ele>1554.731</ele>
        <time>2021-04-29T11:05:32Z</time>
      </trkpt>
      <trkpt lat="42.868930" lon="-0.463605">
        <ele>1578.890</ele>
        <time>2021-04-29T11:06:12Z</time>
      </trkpt>
      <trkpt lat="42.869140" lon="-0.464162">
        <ele>1588.317</ele>
        <time>2021-04-29T11:06:52Z</time>
      </trkpt>
      <trkpt lat="42.868970" lon="-0.464999">
        <ele>1598.592</ele>
        <time>2021-04-29T11:07:32Z</time>
      </trkpt>
      <trkpt lat="42.869190" lon="-0.466040">
        <ele>1615.875</ele>
        <time>2021-04-29T11:08:12Z</time>
      </trkpt>
      <trkpt lat="42.869064" lon="-0.466619">
        <ele>1624.094</ele>
        <time>2021-04-29T11:08:52Z</time>
      </trkpt>
      <trkpt lat="42.869205" lon="-0.468046">
        <ele>1639.654</ele>
        <time>2021-04-29T11:09:32Z</time>
      </trkpt>
      <trkpt lat="42.868538" lon="-0.470428">
        <ele>1668.719</ele>
        <time>2021-04-29T11:10:12Z</time>
      </trkpt>
      <trkpt lat="42.868620" lon="-0.471405">
        <ele>1681.809</ele>
        <time>2021-04-29T11:10:52Z</time>
      </trkpt>
      <trkpt lat="42.868385" lon="-0.472499">
        <ele>1692.819</ele>
        <time>2021-04-29T11:11:32Z</time>
      </trkpt>
      <trkpt lat="42.868230" lon="-0.472595">
        <ele>1692.908</ele>
        <time>2021-04-29T11:12:12Z</time>
      </trkpt>
      <trkpt lat="42.868214" lon="-0.473421">
        <ele>1697.547</ele>
        <time>2021-04-29T11:12:52Z</time>
      </trkpt>
      <trkpt lat="42.868008" lon="-0.474122">
        <ele>1730.517</ele>
        <time>2021-04-29T11:13:32Z</time>
      </trkpt>
      <trkpt lat="42.867600" lon="-0.474784">
        <ele>1721.616</ele>
        <time>2021-04-29T11:14:12Z</time>
      </trkpt>
      <trkpt lat="42.866615" lon="-0.475675">
        <ele>1713.733</ele>
        <time>2021-04-29T11:14:52Z</time>
      </trkpt>
      <trkpt lat="42.864952" lon="-0.478722">
        <ele>1720.768</ele>
        <time>2021-04-29T11:15:32Z</time>
      </trkpt>
      <trkpt lat="42.864902" lon="-0.479977">
        <ele>1743.651</ele>
        <time>2021-04-29T11:16:12Z</time>
      </trkpt>
      <trkpt lat="42.864030" lon="-0.481999">
        <ele>1772.570</ele>
        <time>2021-04-29T11:16:52Z</time>
      </trkpt>
      <trkpt lat="42.863620" lon="-0.484000">
        <ele>1836.060</ele>
        <time>2021-04-29T11:17:32Z</time>
      </trkpt>
      <trkpt lat="42.863052" lon="-0.485606">
        <ele>1868.245</ele>
        <time>2021-04-29T11:18:12Z</time>
      </trkpt>
      <trkpt lat="42.862354" lon="-0.486620">
        <ele>1890.647</ele>
        <time>2021-04-29T11:18:52Z</time>
      </trkpt>
      <trkpt lat="42.862190" lon="-0.487084">
        <ele>1910.111</ele>
        <time>2021-04-29T11:19:32Z</time>
      </trkpt>
      <trkpt lat="42.861378" lon="-0.487591">
        <ele>1920.208</ele>
        <time>2021-04-29T11:20:12Z</time>
      </trkpt>
      <trkpt lat="42.860870" lon="-0.488828">
        <ele>1966.670</ele>
        <time>2021-04-29T11:20:52Z</time>
      </trkpt>
      <trkpt lat="42.860428" lon="-0.489532">
        <ele>1994.010</ele>
        <time>2021-04-29T11:21:32Z</time>
      </trkpt>
      <trkpt lat="42.860203" lon="-0.489558">
        <ele>2008.379</ele>
        <time>2021-04-29T11:22:12Z</time>
      </trkpt>
      <trkpt lat="42.860264" lon="-0.490219">
        <ele>2033.426</ele>
        <time>2021-04-29T11:22:52Z</time>
      </trkpt>
      <trkpt lat="42.859768" lon="-0.491534">
        <ele>2064.931</ele>
        <time>2021-04-29T11:23:32Z</time>
      </trkpt>
      <trkpt lat="42.859880" lon="-0.491645">
        <ele>2065.174</ele>
        <time>2021-04-29T11:24:12Z</time>
      </trkpt>
      <trkpt lat="42.860214" lon="-0.491525">
        <ele>2064.753</ele>
        <time>2021-04-29T11:24:52Z</time>
      </trkpt>
      <trkpt lat="42.860386" lon="-0.491611">
        <ele>2064.183</ele>
        <time>2021-04-29T11:25:32Z</time>
      </trkpt>
      <trkpt lat="42.860310" lon="-0.491920">
        <ele>2065.921</ele>
        <time>2021-04-29T11:26:12Z</time>
      </trkpt>
      <trkpt lat="42.860460" lon="-0.492341">
        <ele>2104.741</ele>
        <time>2021-04-29T11:26:52Z</time>
      </trkpt>
      <trkpt lat="42.860138" lon="-0.493071">
        <ele>2080.705</ele>
        <time>2021-04-29T11:27:32Z</time>
      </trkpt>
      <trkpt lat="42.859394" lon="-0.494008">
        <ele>2042.508</ele>
        <time>2021-04-29T11:28:12Z</time>
      </trkpt>
      <trkpt lat="42.859024" lon="-0.494308">
        <ele>2031.578</ele>
        <time>2021-04-29T11:28:52Z</time>
      </trkpt>
      <trkpt lat="42.858520" lon="-0.494446">
        <ele>2025.128</ele>
        <time>2021-04-29T11:29:32Z</time>
      </trkpt>
      <trkpt lat="42.858192" lon="-0.494386">
        <ele>2022.967</ele>
        <time>2021-04-29T11:30:12Z</time>
      </trkpt>
      <trkpt lat="42.857155" lon="-0.494815">
        <ele>2031.034</ele>
        <time>2021-04-29T11:30:52Z</time>
      </trkpt>
      <trkpt lat="42.856537" lon="-0.494420">
        <ele>2054.019</ele>
        <time>2021-04-29T11:31:32Z</time>
      </trkpt>
      <trkpt lat="42.855755" lon="-0.494248">
        <ele>2095.492</ele>
        <time>2021-04-29T11:32:12Z</time>
      </trkpt>
      <trkpt lat="42.854755" lon="-0.494386">
        <ele>2137.541</ele>
        <time>2021-04-29T11:32:52Z</time>
      </trkpt>
      <trkpt lat="42.854477" lon="-0.494160">
        <ele>2142.261</ele>
        <time>2021-04-29T11:33:32Z</time>
      </trkpt>
      <trkpt lat="42.854370" lon="-0.494226">
        <ele>2146.267</ele>
        <time>2021-04-29T11:34:12Z</time>
      </trkpt>
      <trkpt lat="42.854305" lon="-0.493805">
        <ele>2147.781</ele>
        <time>2021-04-29T11:34:52Z</time>
      </trkpt>
      <trkpt lat="42.853928" lon="-0.494028">
        <ele>2149.719</ele>
        <time>2021-04-29T11:35:32Z</time>
      </trkpt>
      <trkpt lat="42.853928" lon="-0.493809">
        <ele>2149.008</ele>
        <time>2021-04-29T11:36:12Z</time>
      </trkpt>
      <trkpt lat="42.853683" lon="-0.493986">
        <ele>2148.082</ele>
        <time>2021-04-29T11:36:52Z</time>
      </trkpt>
      <trkpt lat="42.853565" lon="-0.493840">
        <ele>2177.062</ele>
        <time>2021-04-29T11:37:32Z</time>
      </trkpt>
      <trkpt lat="42.853720" lon="-0.492267">
        <ele>2214.821</ele>
        <time>2021-04-29T11:38:12Z</time>
      </trkpt>
      <trkpt lat="42.854220" lon="-0.491473">
        <ele>2224.668</ele>
        <time>2021-04-29T11:38:52Z</time>
      </trkpt>
      <trkpt lat="42.854850" lon="-0.491198">
        <ele>2244.433</ele>
        <time>2021-04-29T11:39:32Z</time>
      </trkpt>
      <trkpt lat="42.854454" lon="-0.490944">
        <ele>2250.616</ele>
        <time>2021-04-29T11:40:12Z</time>
      </trkpt>
      <trkpt lat="42.854820" lon="-0.491281">
        <ele>2226.855</ele>
        <time>2021-04-29T11:40:52Z</time>
      </trkpt>
      <trkpt lat="42.854220" lon="-0.491473">
        <ele>2224.655</ele>
        <time>2021-04-29T11:41:32Z</time>
      </trkpt>
      <trkpt lat="42.853720" lon="-0.492267">
        <ele>2214.886</ele>
        <time>2021-04-29T11:42:12Z</time>
      </trkpt>
      <trkpt lat="42.853615" lon="-0.492757">
        <ele>2206.560</ele>
        <time>2021-04-29T11:42:52Z</time>
      </trkpt>
      <trkpt lat="42.853490" lon="-0.494211">
        <ele>2167.026</ele>
        <time>2021-04-29T11:43:32Z</time>
      </trkpt>
      <trkpt lat="42.853706" lon="-0.494441">
        <ele>2166.808</ele>
        <time>2021-04-29T11:44:12Z</time>
      </trkpt>
      <trkpt lat="42.853657" lon="-0.494913">
        <ele>2163.294</ele>
        <time>2021-04-29T11:44:52Z</time>
      </trkpt>
      <trkpt lat="42.853077" lon="-0.495710">
        <ele>2155.334</ele>
        <time>2021-04-29T11:45:32Z</time>
      </trkpt>
      <trkpt lat="42.852490" lon="-0.496080">
        <ele>2156.723</ele>
        <time>2021-04-29T11:46:12Z</time>
      </trkpt>
      <trkpt lat="42.852097" lon="-0.496941">
        <ele>2148.880</ele>
        <time>2021-04-29T11:46:52Z</time>
      </trkpt>
      <trkpt lat="42.851750" lon="-0.497168">
        <ele>2166.475</ele>
        <time>2021-04-29T11:47:32Z</time>
      </trkpt>
      <trkpt lat="42.852010" lon="-0.496002">
        <ele>2168.358</ele>
        <time>2021-04-29T11:48:12Z</time>
      </trkpt>
      <trkpt lat="42.851826" lon="-0.494776">
        <ele>2181.557</ele>
        <time>2021-04-29T11:48:52Z</time>
      </trkpt>
      <trkpt lat="42.852062" lon="-0.494100">
        <ele>2160.227</ele>
        <time>2021-04-29T11:49:32Z</time>
      </trkpt>
      <trkpt lat="42.851868" lon="-0.494082">
        <ele>2157.779</ele>
        <time>2021-04-29T11:50:12Z</time>
      </trkpt>
      <trkpt lat="42.852270" lon="-0.493211">
        <ele>2149.405</ele>
        <time>2021-04-29T11:50:52Z</time>
      </trkpt>
      <trkpt lat="42.851970" lon="-0.493360">
        <ele>2147.925</ele>
        <time>2021-04-29T11:51:32Z</time>
      </trkpt>
      <trkpt lat="42.851917" lon="-0.493268">
        <ele>2147.408</ele>
        <time>2021-04-29T11:52:12Z</time>
      </trkpt>
      <trkpt lat="42.852215" lon="-0.492763">
        <ele>2141.733</ele>
        <time>2021-04-29T11:52:52Z</time>
      </trkpt>
      <trkpt lat="42.852196" lon="-0.492588">
        <ele>2138.823</ele>
        <time>2021-04-29T11:53:32Z</time>
      </trkpt>
      <trkpt lat="42.852116" lon="-0.492644">
        <ele>2141.582</ele>
        <time>2021-04-29T11:54:12Z</time>
      </trkpt>
      <trkpt lat="42.852062" lon="-0.489602">
        <ele>2049.589</ele>
        <time>2021-04-29T11:54:52Z</time>
      </trkpt>
      <trkpt lat="42.851704" lon="-0.490245">
        <ele>2052.684</ele>
        <time>2021-04-29T11:55:32Z</time>
      </trkpt>
      <trkpt lat="42.851433" lon="-0.489484">
        <ele>2034.237</ele>
        <time>2021-04-29T11:56:12Z</time>
      </trkpt>
      <trkpt lat="42.850925" lon="-0.489048">
        <ele>2016.146</ele>
        <time>2021-04-29T11:56:52Z</time>
      </trkpt>
      <trkpt lat="42.850690" lon="-0.489242">
        <ele>2015.976</ele>
        <time>2021-04-29T11:57:32Z</time>
      </trkpt>
      <trkpt lat="42.850426" lon="-0.487944">
        <ele>2002.642</ele>
        <time>2021-04-29T11:58:12Z</time>
      </trkpt>
      <trkpt lat="42.850216" lon="-0.488127">
        <ele>2004.722</ele>
        <time>2021-04-29T11:58:52Z</time>
      </trkpt>
      <trkpt lat="42.849940" lon="-0.487123">
        <ele>1972.414</ele>
        <time>2021-04-29T11:59:32Z</time>
      </trkpt>
      <trkpt lat="42.849630" lon="-0.488243">
        <ele>1965.908</ele>
        <time>2021-04-29T12:00:12Z</time>
      </trkpt>
      <trkpt lat="42.849228" lon="-0.489024">
        <ele>1959.470</ele>
        <time>2021-04-29T12:00:52Z</time>
      </trkpt>
      <trkpt lat="42.848938" lon="-0.490664">
        <ele>1959.480</ele>
        <time>2021-04-29T12:01:32Z</time>
      </trkpt>
      <trkpt lat="42.848490" lon="-0.491073">
        <ele>1966.799</ele>
        <time>2021-04-29T12:02:12Z</time>
      </trkpt>
      <trkpt lat="42.848528" lon="-0.491065">
        <ele>1966.346</ele>
        <time>2021-04-29T09:50:35Z</time>
      </trkpt>
      <trkpt lat="42.847891" lon="-0.491159">
        <ele>1967.288</ele>
        <time>2021-04-29T09:51:15Z</time>
      </trkpt>
      <trkpt lat="42.847271" lon="-0.491779">
        <ele>1974.316</ele>
        <time>2021-04-29T09:51:55Z</time>
      </trkpt>
      <trkpt lat="42.846979" lon="-0.492545">
        <ele>1981.508</ele>
        <time>2021-04-29T09:52:35Z</time>
      </trkpt>
      <trkpt lat="42.846709" lon="-0.492596">
        <ele>1988.351</ele>
        <time>2021-04-29T09:53:15Z</time>
      </trkpt>
      <trkpt lat="42.846441" lon="-0.492864">
        <ele>1994.365</ele>
        <time>2021-04-29T09:53:55Z</time>
      </trkpt>
      <trkpt lat="42.846326" lon="-0.493224">
        <ele>2001.471</ele>
        <time>2021-04-29T09:54:35Z</time>
      </trkpt>
      <trkpt lat="42.846256" lon="-0.492896">
        <ele>1999.996</ele>
        <time>2021-04-29T09:55:15Z</time>
      </trkpt>
      <trkpt lat="42.846172" lon="-0.493218">
        <ele>2008.292</ele>
        <time>2021-04-29T09:55:55Z</time>
      </trkpt>
      <trkpt lat="42.846093" lon="-0.492984">
        <ele>2007.173</ele>
        <time>2021-04-29T09:56:35Z</time>
      </trkpt>
      <trkpt lat="42.845861" lon="-0.493632">
        <ele>2029.031</ele>
        <time>2021-04-29T09:57:15Z</time>
      </trkpt>
      <trkpt lat="42.845817" lon="-0.493264">
        <ele>2025.347</ele>
        <time>2021-04-29T09:57:55Z</time>
      </trkpt>
      <trkpt lat="42.845200" lon="-0.492907">
        <ele>2042.319</ele>
        <time>2021-04-29T09:58:35Z</time>
      </trkpt>
      <trkpt lat="42.845058" lon="-0.492611">
        <ele>2046.609</ele>
        <time>2021-04-29T09:59:15Z</time>
      </trkpt>
      <trkpt lat="42.844213" lon="-0.492265">
        <ele>2053.419</ele>
        <time>2021-04-29T09:59:55Z</time>
      </trkpt>
      <trkpt lat="42.843026" lon="-0.492583">
        <ele>2062.808</ele>
        <time>2021-04-29T10:00:35Z</time>
      </trkpt>
      <trkpt lat="42.842635" lon="-0.492450">
        <ele>2067.498</ele>
        <time>2021-04-29T10:01:15Z</time>
      </trkpt>
      <trkpt lat="42.842179" lon="-0.492816">
        <ele>2077.142</ele>
        <time>2021-04-29T10:01:55Z</time>
      </trkpt>
      <trkpt lat="42.841470" lon="-0.493060">
        <ele>2085.248</ele>
        <time>2021-04-29T10:02:35Z</time>
      </trkpt>
      <trkpt lat="42.840336" lon="-0.492024">
        <ele>2094.423</ele>
        <time>2021-04-29T10:03:15Z</time>
      </trkpt>
      <trkpt lat="42.839781" lon="-0.492507">
        <ele>2087.999</ele>
        <time>2021-04-29T10:03:55Z</time>
      </trkpt>
      <trkpt lat="42.839483" lon="-0.492445">
        <ele>2089.540</ele>
        <time>2021-04-29T10:04:35Z</time>
      </trkpt>
      <trkpt lat="42.838940" lon="-0.493089">
        <ele>2088.318</ele>
        <time>2021-04-29T10:05:15Z</time>
      </trkpt>
      <trkpt lat="42.838623" lon="-0.492800">
        <ele>2094.484</ele>
        <time>2021-04-29T10:05:55Z</time>
      </trkpt>
      <trkpt lat="42.838120" lon="-0.492732">
        <ele>2091.918</ele>
        <time>2021-04-29T10:06:35Z</time>
      </trkpt>
      <trkpt lat="42.837045" lon="-0.491789">
        <ele>2099.998</ele>
        <time>2021-04-29T10:07:15Z</time>
      </trkpt>
      <trkpt lat="42.836768" lon="-0.491744">
        <ele>2090.617</ele>
        <time>2021-04-29T10:07:55Z</time>
      </trkpt>
      <trkpt lat="42.836698" lon="-0.491581">
        <ele>2085.208</ele>
        <time>2021-04-29T10:08:35Z</time>
      </trkpt>
      <trkpt lat="42.836908" lon="-0.491146">
        <ele>2077.958</ele>
        <time>2021-04-29T10:09:15Z</time>
      </trkpt>
      <trkpt lat="42.836666" lon="-0.490917">
        <ele>2066.292</ele>
        <time>2021-04-29T10:09:55Z</time>
      </trkpt>
      <trkpt lat="42.836407" lon="-0.491144">
        <ele>2061.338</ele>
        <time>2021-04-29T10:10:35Z</time>
      </trkpt>
      <trkpt lat="42.836261" lon="-0.490723">
        <ele>2047.543</ele>
        <time>2021-04-29T10:11:15Z</time>
      </trkpt>
      <trkpt lat="42.835611" lon="-0.491435">
        <ele>2030.919</ele>
        <time>2021-04-29T10:11:55Z</time>
      </trkpt>
      <trkpt lat="42.834728" lon="-0.491872">
        <ele>2011.650</ele>
        <time>2021-04-29T10:12:35Z</time>
      </trkpt>
      <trkpt lat="42.834115" lon="-0.491691">
        <ele>2001.428</ele>
        <time>2021-04-29T10:13:15Z</time>
      </trkpt>
      <trkpt lat="42.833661" lon="-0.491781">
        <ele>2002.834</ele>
        <time>2021-04-29T10:13:55Z</time>
      </trkpt>
      <trkpt lat="42.833353" lon="-0.492051">
        <ele>1999.644</ele>
        <time>2021-04-29T10:14:35Z</time>
      </trkpt>
      <trkpt lat="42.833242" lon="-0.492372">
        <ele>2002.805</ele>
        <time>2021-04-29T10:15:15Z</time>
      </trkpt>
      <trkpt lat="42.832496" lon="-0.492917">
        <ele>2000.015</ele>
        <time>2021-04-29T10:15:55Z</time>
      </trkpt>
      <trkpt lat="42.831153" lon="-0.493606">
        <ele>2024.908</ele>
        <time>2021-04-29T10:16:35Z</time>
      </trkpt>
      <trkpt lat="42.830844" lon="-0.493601">
        <ele>2034.641</ele>
        <time>2021-04-29T10:17:15Z</time>
      </trkpt>
      <trkpt lat="42.829959" lon="-0.495046">
        <ele>2059.235</ele>
        <time>2021-04-29T10:17:55Z</time>
      </trkpt>
      <trkpt lat="42.829221" lon="-0.495235">
        <ele>2071.741</ele>
        <time>2021-04-29T10:18:35Z</time>
      </trkpt>
      <trkpt lat="42.828543" lon="-0.495727">
        <ele>2090.436</ele>
        <time>2021-04-29T10:19:15Z</time>
      </trkpt>
      <trkpt lat="42.828338" lon="-0.495728">
        <ele>2091.382</ele>
        <time>2021-04-29T10:19:55Z</time>
      </trkpt>
      <trkpt lat="42.827439" lon="-0.496961">
        <ele>2124.233</ele>
        <time>2021-04-29T10:20:35Z</time>
      </trkpt>
      <trkpt lat="42.826506" lon="-0.497338">
        <ele>2130.731</ele>
        <time>2021-04-29T10:21:15Z</time>
      </trkpt>
      <trkpt lat="42.826382" lon="-0.497751">
        <ele>2145.597</ele>
        <time>2021-04-29T10:21:55Z</time>
      </trkpt>
      <trkpt lat="42.826166" lon="-0.497935">
        <ele>2149.023</ele>
        <time>2021-04-29T10:22:35Z</time>
      </trkpt>
      <trkpt lat="42.825571" lon="-0.498179">
        <ele>2152.083</ele>
        <time>2021-04-29T10:23:15Z</time>
      </trkpt>
      <trkpt lat="42.824478" lon="-0.499023">
        <ele>2165.811</ele>
        <time>2021-04-29T10:23:55Z</time>
      </trkpt>
      <trkpt lat="42.824817" lon="-0.502656">
        <ele>2110.608</ele>
        <time>2021-04-29T10:24:35Z</time>
      </trkpt>
      <trkpt lat="42.824660" lon="-0.502946">
        <ele>2102.379</ele>
        <time>2021-04-29T10:25:15Z</time>
      </trkpt>
      <trkpt lat="42.824258" lon="-0.502777">
        <ele>2095.733</ele>
        <time>2021-04-29T10:25:55Z</time>
      </trkpt>
      <trkpt lat="42.823283" lon="-0.502742">
        <ele>2083.389</ele>
        <time>2021-04-29T10:26:35Z</time>
      </trkpt>
      <trkpt lat="42.823089" lon="-0.502520">
        <ele>2085.864</ele>
        <time>2021-04-29T10:27:15Z</time>
      </trkpt>
      <trkpt lat="42.822256" lon="-0.502328">
        <ele>2090.550</ele>
        <time>2021-04-29T10:27:55Z</time>
      </trkpt>
      <trkpt lat="42.821409" lon="-0.502337">
        <ele>2099.321</ele>
        <time>2021-04-29T10:28:35Z</time>
      </trkpt>
      <trkpt lat="42.820771" lon="-0.502150">
        <ele>2112.839</ele>
        <time>2021-04-29T10:29:15Z</time>
      </trkpt>
      <trkpt lat="42.820498" lon="-0.501646">
        <ele>2116.355</ele>
        <time>2021-04-29T10:29:55Z</time>
      </trkpt>
      <trkpt lat="42.820664" lon="-0.502060">
        <ele>2112.091</ele>
        <time>2021-04-29T10:30:35Z</time>
      </trkpt>
      <trkpt lat="42.820970" lon="-0.502190">
        <ele>2111.981</ele>
        <time>2021-04-29T10:31:15Z</time>
      </trkpt>
      <trkpt lat="42.821625" lon="-0.503423">
        <ele>2079.919</ele>
        <time>2021-04-29T10:31:55Z</time>
      </trkpt>
      <trkpt lat="42.822038" lon="-0.504802">
        <ele>2077.508</ele>
        <time>2021-04-29T10:32:35Z</time>
      </trkpt>
      <trkpt lat="42.821703" lon="-0.505615">
        <ele>2068.026</ele>
        <time>2021-04-29T10:33:15Z</time>
      </trkpt>
      <trkpt lat="42.820663" lon="-0.506551">
        <ele>2021.770</ele>
        <time>2021-04-29T10:33:55Z</time>
      </trkpt>
      <trkpt lat="42.820438" lon="-0.506473">
        <ele>2014.126</ele>
        <time>2021-04-29T10:34:35Z</time>
      </trkpt>
      <trkpt lat="42.819958" lon="-0.505886">
        <ele>1991.121</ele>
        <time>2021-04-29T10:35:15Z</time>
      </trkpt>
      <trkpt lat="42.819856" lon="-0.506087">
        <ele>1981.637</ele>
        <time>2021-04-29T10:35:55Z</time>
      </trkpt>
      <trkpt lat="42.819648" lon="-0.505778">
        <ele>1973.198</ele>
        <time>2021-04-29T10:36:35Z</time>
      </trkpt>
      <trkpt lat="42.819445" lon="-0.506366">
        <ele>1960.156</ele>
        <time>2021-04-29T10:37:15Z</time>
      </trkpt>
      <trkpt lat="42.819191" lon="-0.505967">
        <ele>1946.912</ele>
        <time>2021-04-29T10:37:55Z</time>
      </trkpt>
      <trkpt lat="42.818959" lon="-0.505867">
        <ele>1935.841</ele>
        <time>2021-04-29T10:38:35Z</time>
      </trkpt>
      <trkpt lat="42.818613" lon="-0.504824">
        <ele>1924.481</ele>
        <time>2021-04-29T10:39:15Z</time>
      </trkpt>
      <trkpt lat="42.818078" lon="-0.504365">
        <ele>1911.209</ele>
        <time>2021-04-29T10:39:55Z</time>
      </trkpt>
      <trkpt lat="42.817749" lon="-0.504280">
        <ele>1902.808</ele>
        <time>2021-04-29T10:40:35Z</time>
      </trkpt>
      <trkpt lat="42.816450" lon="-0.504848">
        <ele>1877.811</ele>
        <time>2021-04-29T10:41:15Z</time>
      </trkpt>
      <trkpt lat="42.815728" lon="-0.504317">
        <ele>1866.645</ele>
        <time>2021-04-29T10:41:55Z</time>
      </trkpt>
      <trkpt lat="42.815034" lon="-0.504384">
        <ele>1852.531</ele>
        <time>2021-04-29T10:42:35Z</time>
      </trkpt>
      <trkpt lat="42.814585" lon="-0.504065">
        <ele>1845.956</ele>
        <time>2021-04-29T10:43:15Z</time>
      </trkpt>
      <trkpt lat="42.814009" lon="-0.504290">
        <ele>1836.632</ele>
        <time>2021-04-29T10:43:55Z</time>
      </trkpt>
      <trkpt lat="42.813911" lon="-0.503907">
        <ele>1840.013</ele>
        <time>2021-04-29T10:44:35Z</time>
      </trkpt>
      <trkpt lat="42.811903" lon="-0.503770">
        <ele>1791.981</ele>
        <time>2021-04-29T10:45:15Z</time>
      </trkpt>
      <trkpt lat="42.811861" lon="-0.503353">
        <ele>1792.757</ele>
        <time>2021-04-29T10:45:55Z</time>
      </trkpt>
      <trkpt lat="42.811679" lon="-0.503256">
        <ele>1787.419</ele>
        <time>2021-04-29T10:46:35Z</time>
      </trkpt>
      <trkpt lat="42.811537" lon="-0.503782">
        <ele>1777.709</ele>
        <time>2021-04-29T10:47:15Z</time>
      </trkpt>
      <trkpt lat="42.811427" lon="-0.503587">
        <ele>1776.319</ele>
        <time>2021-04-29T10:47:55Z</time>
      </trkpt>
      <trkpt lat="42.811230" lon="-0.503643">
        <ele>1771.708</ele>
        <time>2021-04-29T10:48:35Z</time>
      </trkpt>
      <trkpt lat="42.810709" lon="-0.504223">
        <ele>1745.648</ele>
        <time>2021-04-29T10:49:15Z</time>
      </trkpt>
      <trkpt lat="42.810390" lon="-0.505097">
        <ele>1722.362</ele>
        <time>2021-04-29T10:49:55Z</time>
      </trkpt>
      <trkpt lat="42.809932" lon="-0.504223">
        <ele>1724.058</ele>
        <time>2021-04-29T10:50:35Z</time>
      </trkpt>
      <trkpt lat="42.809450" lon="-0.504106">
        <ele>1724.243</ele>
        <time>2021-04-29T10:51:15Z</time>
      </trkpt>
      <trkpt lat="42.809111" lon="-0.501812">
        <ele>1742.089</ele>
        <time>2021-04-29T10:51:55Z</time>
      </trkpt>
      <trkpt lat="42.809156" lon="-0.500994">
        <ele>1746.280</ele>
        <time>2021-04-29T10:52:35Z</time>
      </trkpt>
      <trkpt lat="42.808889" lon="-0.499954">
        <ele>1759.388</ele>
        <time>2021-04-29T10:53:15Z</time>
      </trkpt>
      <trkpt lat="42.808572" lon="-0.499414">
        <ele>1771.844</ele>
        <time>2021-04-29T10:53:55Z</time>
      </trkpt>
      <trkpt lat="42.808301" lon="-0.498175">
        <ele>1790.766</ele>
        <time>2021-04-29T10:54:35Z</time>
      </trkpt>
      <trkpt lat="42.807871" lon="-0.497245">
        <ele>1805.029</ele>
        <time>2021-04-29T10:55:15Z</time>
      </trkpt>
      <trkpt lat="42.807910" lon="-0.496772">
        <ele>1810.521</ele>
        <time>2021-04-29T10:55:55Z</time>
      </trkpt>
      <trkpt lat="42.807777" lon="-0.496576">
        <ele>1811.708</ele>
        <time>2021-04-29T10:56:35Z</time>
      </trkpt>
      <trkpt lat="42.807671" lon="-0.497590">
        <ele>1807.233</ele>
        <time>2021-04-29T10:57:15Z</time>
      </trkpt>
      <trkpt lat="42.807834" lon="-0.498489">
        <ele>1804.617</ele>
        <time>2021-04-29T10:57:55Z</time>
      </trkpt>
      <trkpt lat="42.807148" lon="-0.499363">
        <ele>1819.973</ele>
        <time>2021-04-29T10:58:35Z</time>
      </trkpt>
      <trkpt lat="42.806911" lon="-0.498757">
        <ele>1828.368</ele>
        <time>2021-04-29T10:59:15Z</time>
      </trkpt>
      <trkpt lat="42.806762" lon="-0.498701">
        <ele>1832.874</ele>
        <time>2021-04-29T10:59:55Z</time>
      </trkpt>
      <trkpt lat="42.806380" lon="-0.499535">
        <ele>1839.925</ele>
        <time>2021-04-29T11:00:35Z</time>
      </trkpt>
      <trkpt lat="42.806388" lon="-0.500085">
        <ele>1846.243</ele>
        <time>2021-04-29T11:01:15Z</time>
      </trkpt>
      <trkpt lat="42.806765" lon="-0.501040">
        <ele>1851.739</ele>
        <time>2021-04-29T11:01:55Z</time>
      </trkpt>
      <trkpt lat="42.806545" lon="-0.504315">
        <ele>1875.186</ele>
        <time>2021-04-29T11:02:35Z</time>
      </trkpt>
      <trkpt lat="42.806305" lon="-0.505428">
        <ele>1883.060</ele>
        <time>2021-04-29T11:03:15Z</time>
      </trkpt>
      <trkpt lat="42.806018" lon="-0.505739">
        <ele>1885.626</ele>
        <time>2021-04-29T11:03:55Z</time>
      </trkpt>
      <trkpt lat="42.805665" lon="-0.505790">
        <ele>1889.308</ele>
        <time>2021-04-29T11:04:35Z</time>
      </trkpt>
      <trkpt lat="42.805547" lon="-0.505533">
        <ele>1893.435</ele>
        <time>2021-04-29T11:05:15Z</time>
      </trkpt>
      <trkpt lat="42.805713" lon="-0.504194">
        <ele>1902.589</ele>
        <time>2021-04-29T11:05:55Z</time>
      </trkpt>
      <trkpt lat="42.805115" lon="-0.501935">
        <ele>1918.015</ele>
        <time>2021-04-29T11:06:35Z</time>
      </trkpt>
      <trkpt lat="42.803291" lon="-0.498650">
        <ele>1943.360</ele>
        <time>2021-04-29T11:07:15Z</time>
      </trkpt>
      <trkpt lat="42.803222" lon="-0.497746">
        <ele>1951.016</ele>
        <time>2021-04-29T11:07:55Z</time>
      </trkpt>
      <trkpt lat="42.803459" lon="-0.495600">
        <ele>1965.817</ele>
        <time>2021-04-29T11:08:35Z</time>
      </trkpt>
      <trkpt lat="42.803316" lon="-0.495600">
        <ele>1968.135</ele>
        <time>2021-04-29T11:09:15Z</time>
      </trkpt>
      <trkpt lat="42.801635" lon="-0.498081">
        <ele>1987.251</ele>
        <time>2021-04-29T11:09:55Z</time>
      </trkpt>
      <trkpt lat="42.801304" lon="-0.498030">
        <ele>1990.967</ele>
        <time>2021-04-29T11:10:35Z</time>
      </trkpt>
      <trkpt lat="42.800959" lon="-0.497591">
        <ele>1996.681</ele>
        <time>2021-04-29T11:11:15Z</time>
      </trkpt>
      <trkpt lat="42.800873" lon="-0.497325">
        <ele>1999.519</ele>
        <time>2021-04-29T11:11:55Z</time>
      </trkpt>
      <trkpt lat="42.801363" lon="-0.496114">
        <ele>2006.708</ele>
        <time>2021-04-29T11:12:35Z</time>
      </trkpt>
      <trkpt lat="42.801398" lon="-0.495050">
        <ele>2015.363</ele>
        <time>2021-04-29T11:13:15Z</time>
      </trkpt>
      <trkpt lat="42.801921" lon="-0.494709">
        <ele>2016.417</ele>
        <time>2021-04-29T11:13:55Z</time>
      </trkpt>
      <trkpt lat="42.802318" lon="-0.494220">
        <ele>2022.623</ele>
        <time>2021-04-29T11:14:35Z</time>
      </trkpt>
      <trkpt lat="42.802479" lon="-0.493517">
        <ele>2023.968</ele>
        <time>2021-04-29T11:15:15Z</time>
      </trkpt>
      <trkpt lat="42.802314" lon="-0.493101">
        <ele>2023.624</ele>
        <time>2021-04-29T11:15:55Z</time>
      </trkpt>
      <trkpt lat="42.802096" lon="-0.493066">
        <ele>2025.955</ele>
        <time>2021-04-29T11:16:35Z</time>
      </trkpt>
      <trkpt lat="42.801754" lon="-0.493783">
        <ele>2035.863</ele>
        <time>2021-04-29T11:17:15Z</time>
      </trkpt>
      <trkpt lat="42.801454" lon="-0.493833">
        <ele>2036.519</ele>
        <time>2021-04-29T11:17:55Z</time>
      </trkpt>
      <trkpt lat="42.801166" lon="-0.493556">
        <ele>2040.858</ele>
        <time>2021-04-29T11:18:35Z</time>
      </trkpt>
      <trkpt lat="42.801179" lon="-0.493200">
        <ele>2042.752</ele>
        <time>2021-04-29T11:19:15Z</time>
      </trkpt>
      <trkpt lat="42.800880" lon="-0.492385">
        <ele>2049.517</ele>
        <time>2021-04-29T11:19:55Z</time>
      </trkpt>
      <trkpt lat="42.800873" lon="-0.491445">
        <ele>2056.208</ele>
        <time>2021-04-29T11:20:35Z</time>
      </trkpt>
      <trkpt lat="42.800643" lon="-0.490774">
        <ele>2062.412</ele>
        <time>2021-04-29T11:21:15Z</time>
      </trkpt>
      <trkpt lat="42.800811" lon="-0.490367">
        <ele>2062.436</ele>
        <time>2021-04-29T11:21:55Z</time>
      </trkpt>
      <trkpt lat="42.800562" lon="-0.490282">
        <ele>2066.972</ele>
        <time>2021-04-29T11:22:35Z</time>
      </trkpt>
      <trkpt lat="42.800419" lon="-0.490534">
        <ele>2070.167</ele>
        <time>2021-04-29T11:23:15Z</time>
      </trkpt>
      <trkpt lat="42.800454" lon="-0.491439">
        <ele>2070.263</ele>
        <time>2021-04-29T11:23:55Z</time>
      </trkpt>
      <trkpt lat="42.799869" lon="-0.491785">
        <ele>2081.244</ele>
        <time>2021-04-29T11:24:35Z</time>
      </trkpt>
      <trkpt lat="42.799824" lon="-0.493102">
        <ele>2085.062</ele>
        <time>2021-04-29T11:25:15Z</time>
      </trkpt>
      <trkpt lat="42.799436" lon="-0.493381">
        <ele>2089.178</ele>
        <time>2021-04-29T11:25:55Z</time>
      </trkpt>
      <trkpt lat="42.799480" lon="-0.494028">
        <ele>2088.158</ele>
        <time>2021-04-29T11:26:35Z</time>
      </trkpt>
      <trkpt lat="42.799245" lon="-0.495218">
        <ele>2093.552</ele>
        <time>2021-04-29T11:27:15Z</time>
      </trkpt>
      <trkpt lat="42.798180" lon="-0.498229">
        <ele>2117.917</ele>
        <time>2021-04-29T11:27:55Z</time>
      </trkpt>
      <trkpt lat="42.798146" lon="-0.499025">
        <ele>2121.908</ele>
        <time>2021-04-29T11:28:35Z</time>
      </trkpt>
      <trkpt lat="42.797742" lon="-0.499573">
        <ele>2130.532</ele>
        <time>2021-04-29T11:29:15Z</time>
      </trkpt>
      <trkpt lat="42.797596" lon="-0.500321">
        <ele>2133.436</ele>
        <time>2021-04-29T11:29:55Z</time>
      </trkpt>
      <trkpt lat="42.797342" lon="-0.500420">
        <ele>2138.062</ele>
        <time>2021-04-29T11:30:35Z</time>
      </trkpt>
      <trkpt lat="42.797031" lon="-0.499827">
        <ele>2144.317</ele>
        <time>2021-04-29T11:31:15Z</time>
      </trkpt>
      <trkpt lat="42.796727" lon="-0.499675">
        <ele>2147.243</ele>
        <time>2021-04-29T11:31:55Z</time>
      </trkpt>
      <trkpt lat="42.796446" lon="-0.499944">
        <ele>2150.844</ele>
        <time>2021-04-29T11:32:35Z</time>
      </trkpt>
      <trkpt lat="42.796325" lon="-0.499805">
        <ele>2154.422</ele>
        <time>2021-04-29T11:33:15Z</time>
      </trkpt>
      <trkpt lat="42.796380" lon="-0.499261">
        <ele>2158.818</ele>
        <time>2021-04-29T11:33:55Z</time>
      </trkpt>
      <trkpt lat="42.796777" lon="-0.498765">
        <ele>2160.062</ele>
        <time>2021-04-29T11:34:35Z</time>
      </trkpt>
      <trkpt lat="42.796639" lon="-0.498541">
        <ele>2164.983</ele>
        <time>2021-04-29T11:35:15Z</time>
      </trkpt>
      <trkpt lat="42.796368" lon="-0.498594">
        <ele>2170.611</ele>
        <time>2021-04-29T11:35:55Z</time>
      </trkpt>
      <trkpt lat="42.795690" lon="-0.500120">
        <ele>2182.108</ele>
        <time>2021-04-29T11:36:35Z</time>
      </trkpt>
      <trkpt lat="42.795526" lon="-0.501100">
        <ele>2188.453</ele>
        <time>2021-04-29T11:37:15Z</time>
      </trkpt>
      <trkpt lat="42.795488" lon="-0.504724">
        <ele>2216.757</ele>
        <time>2021-04-29T11:37:55Z</time>
      </trkpt>
      <trkpt lat="42.795824" lon="-0.505224">
        <ele>2220.643</ele>
        <time>2021-04-29T11:38:35Z</time>
      </trkpt>
      <trkpt lat="42.795870" lon="-0.505566">
        <ele>2224.648</ele>
        <time>2021-04-29T11:39:15Z</time>
      </trkpt>
      <trkpt lat="42.794858" lon="-0.505418">
        <ele>2237.834</ele>
        <time>2021-04-29T11:39:55Z</time>
      </trkpt>
      <trkpt lat="42.794475" lon="-0.505767">
        <ele>2241.225</ele>
        <time>2021-04-29T11:40:35Z</time>
      </trkpt>
      <trkpt lat="42.793122" lon="-0.506104">
        <ele>2254.753</ele>
        <time>2021-04-29T11:41:15Z</time>
      </trkpt>
      <trkpt lat="42.792346" lon="-0.505871">
        <ele>2256.569</ele>
        <time>2021-04-29T11:41:55Z</time>
      </trkpt>
      <trkpt lat="42.791980" lon="-0.506522">
        <ele>2234.184</ele>
        <time>2021-04-29T11:42:35Z</time>
      </trkpt>
      <trkpt lat="42.791362" lon="-0.507199">
        <ele>2203.707</ele>
        <time>2021-04-29T11:43:15Z</time>
      </trkpt>
      <trkpt lat="42.790685" lon="-0.508857">
        <ele>2144.217</ele>
        <time>2021-04-29T11:43:55Z</time>
      </trkpt>
      <trkpt lat="42.790468" lon="-0.507977">
        <ele>2131.608</ele>
        <time>2021-04-29T11:44:35Z</time>
      </trkpt>
      <trkpt lat="42.790424" lon="-0.508429">
        <ele>2127.895</ele>
        <time>2021-04-29T11:45:15Z</time>
      </trkpt>
      <trkpt lat="42.790216" lon="-0.508008">
        <ele>2117.469</ele>
        <time>2021-04-29T11:45:55Z</time>
      </trkpt>
      <trkpt lat="42.790134" lon="-0.507220">
        <ele>2109.745</ele>
        <time>2021-04-29T11:46:35Z</time>
      </trkpt>
      <trkpt lat="42.789948" lon="-0.507957">
        <ele>2102.030</ele>
        <time>2021-04-29T11:47:15Z</time>
      </trkpt>
      <trkpt lat="42.789824" lon="-0.507849">
        <ele>2097.056</ele>
        <time>2021-04-29T11:47:55Z</time>
      </trkpt>
      <trkpt lat="42.789892" lon="-0.507234">
        <ele>2092.857</ele>
        <time>2021-04-29T11:48:35Z</time>
      </trkpt>
      <trkpt lat="42.789682" lon="-0.506914">
        <ele>2085.295</ele>
        <time>2021-04-29T11:49:15Z</time>
      </trkpt>
      <trkpt lat="42.789720" lon="-0.507325">
        <ele>2082.731</ele>
        <time>2021-04-29T11:49:55Z</time>
      </trkpt>
      <trkpt lat="42.789596" lon="-0.507067">
        <ele>2077.656</ele>
        <time>2021-04-29T11:50:35Z</time>
      </trkpt>
      <trkpt lat="42.789598" lon="-0.507317">
        <ele>2075.159</ele>
        <time>2021-04-29T11:51:15Z</time>
      </trkpt>
      <trkpt lat="42.789318" lon="-0.506912">
        <ele>2066.814</ele>
        <time>2021-04-29T11:51:55Z</time>
      </trkpt>
      <trkpt lat="42.789166" lon="-0.506891">
        <ele>2062.008</ele>
        <time>2021-04-29T11:52:35Z</time>
      </trkpt>
      <trkpt lat="42.788978" lon="-0.506923">
        <ele>2058.342</ele>
        <time>2021-04-29T11:53:15Z</time>
      </trkpt>
      <trkpt lat="42.789130" lon="-0.507059">
        <ele>2057.676</ele>
        <time>2021-04-29T11:53:55Z</time>
      </trkpt>
      <trkpt lat="42.788434" lon="-0.507027">
        <ele>2043.442</ele>
        <time>2021-04-29T11:54:35Z</time>
      </trkpt>
      <trkpt lat="42.788654" lon="-0.507181">
        <ele>2043.357</ele>
        <time>2021-04-29T11:55:15Z</time>
      </trkpt>
      <trkpt lat="42.788141" lon="-0.506983">
        <ele>2031.953</ele>
        <time>2021-04-29T11:55:55Z</time>
      </trkpt>
      <trkpt lat="42.788201" lon="-0.507132">
        <ele>2030.654</ele>
        <time>2021-04-29T11:56:35Z</time>
      </trkpt>
      <trkpt lat="42.787969" lon="-0.507075">
        <ele>2020.082</ele>
        <time>2021-04-29T11:57:15Z</time>
      </trkpt>
      <trkpt lat="42.788008" lon="-0.507237">
        <ele>2019.528</ele>
        <time>2021-04-29T11:57:55Z</time>
      </trkpt>
      <trkpt lat="42.787885" lon="-0.507135">
        <ele>2014.891</ele>
        <time>2021-04-29T11:58:35Z</time>
      </trkpt>
      <trkpt lat="42.787851" lon="-0.507373">
        <ele>2008.781</ele>
        <time>2021-04-29T11:59:15Z</time>
      </trkpt>
      <trkpt lat="42.787726" lon="-0.507319">
        <ele>2005.019</ele>
        <time>2021-04-29T11:59:55Z</time>
      </trkpt>
      <trkpt lat="42.787796" lon="-0.507470">
        <ele>2003.608</ele>
        <time>2021-04-29T12:00:35Z</time>
      </trkpt>
      <trkpt lat="42.787601" lon="-0.507359">
        <ele>1998.496</ele>
        <time>2021-04-29T12:01:15Z</time>
      </trkpt>
      <trkpt lat="42.787651" lon="-0.507512">
        <ele>1996.290</ele>
        <time>2021-04-29T12:01:55Z</time>
      </trkpt>
      <trkpt lat="42.787275" lon="-0.507419">
        <ele>1984.346</ele>
        <time>2021-04-29T12:02:35Z</time>
      </trkpt>
      <trkpt lat="42.787443" lon="-0.508192">
        <ele>1974.451</ele>
        <time>2021-04-29T12:03:15Z</time>
      </trkpt>
      <trkpt lat="42.787460" lon="-0.508796">
        <ele>1970.737</ele>
        <time>2021-04-29T12:03:55Z</time>
      </trkpt>
      <trkpt lat="42.787377" lon="-0.508641">
        <ele>1968.048</ele>
        <time>2021-04-29T12:04:35Z</time>
      </trkpt>
      <trkpt lat="42.787362" lon="-0.508853">
        <ele>1966.256</ele>
        <time>2021-04-29T12:05:15Z</time>
      </trkpt>
      <trkpt lat="42.787107" lon="-0.508363">
        <ele>1960.192</ele>
        <time>2021-04-29T12:05:55Z</time>
      </trkpt>
      <trkpt lat="42.786714" lon="-0.508083">
        <ele>1951.855</ele>
        <time>2021-04-29T12:06:35Z</time>
      </trkpt>
      <trkpt lat="42.786752" lon="-0.508409">
        <ele>1947.207</ele>
        <time>2021-04-29T12:07:15Z</time>
      </trkpt>
      <trkpt lat="42.786573" lon="-0.508230">
        <ele>1943.117</ele>
        <time>2021-04-29T12:07:55Z</time>
      </trkpt>
      <trkpt lat="42.786497" lon="-0.508419">
        <ele>1937.208</ele>
        <time>2021-04-29T12:08:35Z</time>
      </trkpt>
      <trkpt lat="42.786270" lon="-0.507889">
        <ele>1933.772</ele>
        <time>2021-04-29T12:09:15Z</time>
      </trkpt>
      <trkpt lat="42.786248" lon="-0.508317">
        <ele>1929.056</ele>
        <time>2021-04-29T12:09:55Z</time>
      </trkpt>
      <trkpt lat="42.785802" lon="-0.507589">
        <ele>1914.052</ele>
        <time>2021-04-29T12:10:35Z</time>
      </trkpt>
      <trkpt lat="42.785474" lon="-0.508158">
        <ele>1907.317</ele>
        <time>2021-04-29T12:11:15Z</time>
      </trkpt>
      <trkpt lat="42.785275" lon="-0.508213">
        <ele>1903.943</ele>
        <time>2021-04-29T12:11:55Z</time>
      </trkpt>
      <trkpt lat="42.785246" lon="-0.508062">
        <ele>1902.964</ele>
        <time>2021-04-29T12:12:35Z</time>
      </trkpt>
      <trkpt lat="42.784956" lon="-0.508867">
        <ele>1892.162</ele>
        <time>2021-04-29T12:13:15Z</time>
      </trkpt>
      <trkpt lat="42.785565" lon="-0.510843">
        <ele>1865.238</ele>
        <time>2021-04-29T12:13:55Z</time>
      </trkpt>
      <trkpt lat="42.785302" lon="-0.510588">
        <ele>1862.264</ele>
        <time>2021-04-29T12:14:35Z</time>
      </trkpt>
      <trkpt lat="42.784642" lon="-0.509293">
        <ele>1863.006</ele>
        <time>2021-04-29T12:15:15Z</time>
      </trkpt>
      <trkpt lat="42.784301" lon="-0.509258">
        <ele>1847.016</ele>
        <time>2021-04-29T12:15:55Z</time>
      </trkpt>
      <trkpt lat="42.784024" lon="-0.508796">
        <ele>1837.508</ele>
        <time>2021-04-29T12:16:35Z</time>
      </trkpt>
      <trkpt lat="42.783782" lon="-0.509332">
        <ele>1825.333</ele>
        <time>2021-04-29T12:17:15Z</time>
      </trkpt>
      <trkpt lat="42.783546" lon="-0.508664">
        <ele>1816.337</ele>
        <time>2021-04-29T12:17:55Z</time>
      </trkpt>
      <trkpt lat="42.783365" lon="-0.509211">
        <ele>1809.233</ele>
        <time>2021-04-29T12:18:35Z</time>
      </trkpt>
      <trkpt lat="42.783272" lon="-0.509044">
        <ele>1805.098</ele>
        <time>2021-04-29T12:19:15Z</time>
      </trkpt>
      <trkpt lat="42.783185" lon="-0.509347">
        <ele>1797.224</ele>
        <time>2021-04-29T12:19:55Z</time>
      </trkpt>
      <trkpt lat="42.783125" lon="-0.509217">
        <ele>1794.775</ele>
        <time>2021-04-29T12:20:35Z</time>
      </trkpt>
      <trkpt lat="42.783125" lon="-0.509539">
        <ele>1790.663</ele>
        <time>2021-04-29T12:21:15Z</time>
      </trkpt>
      <trkpt lat="42.782991" lon="-0.509241">
        <ele>1785.319</ele>
        <time>2021-04-29T12:21:55Z</time>
      </trkpt>
      <trkpt lat="42.782996" lon="-0.509560">
        <ele>1781.981</ele>
        <time>2021-04-29T12:22:35Z</time>
      </trkpt>
      <trkpt lat="42.782702" lon="-0.510025">
        <ele>1762.361</ele>
        <time>2021-04-29T12:23:15Z</time>
      </trkpt>
      <trkpt lat="42.782497" lon="-0.509710">
        <ele>1750.617</ele>
        <time>2021-04-29T12:23:55Z</time>
      </trkpt>
      <trkpt lat="42.782331" lon="-0.510710">
        <ele>1741.808</ele>
        <time>2021-04-29T12:24:35Z</time>
      </trkpt>
      <trkpt lat="42.781761" lon="-0.510515">
        <ele>1722.835</ele>
        <time>2021-04-29T12:25:15Z</time>
      </trkpt>
      <trkpt lat="42.781616" lon="-0.510931">
        <ele>1716.759</ele>
        <time>2021-04-29T12:25:55Z</time>
      </trkpt>
      <trkpt lat="42.781541" lon="-0.510782">
        <ele>1713.765</ele>
        <time>2021-04-29T12:26:35Z</time>
      </trkpt>
      <trkpt lat="42.781438" lon="-0.511176">
        <ele>1706.960</ele>
        <time>2021-04-29T12:27:15Z</time>
      </trkpt>
      <trkpt lat="42.781516" lon="-0.511902">
        <ele>1701.746</ele>
        <time>2021-04-29T12:27:55Z</time>
      </trkpt>
      <trkpt lat="42.781159" lon="-0.511028">
        <ele>1686.867</ele>
        <time>2021-04-29T12:28:35Z</time>
      </trkpt>
      <trkpt lat="42.781199" lon="-0.512449">
        <ele>1672.895</ele>
        <time>2021-04-29T12:29:15Z</time>
      </trkpt>
      <trkpt lat="42.781067" lon="-0.512162">
        <ele>1666.721</ele>
        <time>2021-04-29T12:29:55Z</time>
      </trkpt>
      <trkpt lat="42.780955" lon="-0.512582">
        <ele>1661.479</ele>
        <time>2021-04-29T12:30:35Z</time>
      </trkpt>
      <trkpt lat="42.780728" lon="-0.512054">
        <ele>1651.805</ele>
        <time>2021-04-29T12:31:15Z</time>
      </trkpt>
      <trkpt lat="42.780441" lon="-0.512814">
        <ele>1641.025</ele>
        <time>2021-04-29T12:31:55Z</time>
      </trkpt>
      <trkpt lat="42.780167" lon="-0.512227">
        <ele>1631.408</ele>
        <time>2021-04-29T12:32:35Z</time>
      </trkpt>
      <trkpt lat="42.779802" lon="-0.512042">
        <ele>1625.014</ele>
        <time>2021-04-29T12:33:15Z</time>
      </trkpt>
      <trkpt lat="42.780155" lon="-0.511745">
        <ele>1621.438</ele>
        <time>2021-04-29T12:33:55Z</time>
      </trkpt>
      <trkpt lat="42.780312" lon="-0.511322">
        <ele>1614.594</ele>
        <time>2021-04-29T12:34:35Z</time>
      </trkpt>
      <trkpt lat="42.779972" lon="-0.511536">
        <ele>1607.599</ele>
        <time>2021-04-29T12:35:15Z</time>
      </trkpt>
      <trkpt lat="42.780121" lon="-0.510923">
        <ele>1592.685</ele>
        <time>2021-04-29T12:35:55Z</time>
      </trkpt>
      <trkpt lat="42.779719" lon="-0.509157">
        <ele>1559.686</ele>
        <time>2021-04-29T12:36:35Z</time>
      </trkpt>
      <trkpt lat="42.780383" lon="-0.508436">
        <ele>1544.714</ele>
        <time>2021-04-29T12:37:15Z</time>
      </trkpt>
      <trkpt lat="42.780371" lon="-0.507884">
        <ele>1524.050</ele>
        <time>2021-04-29T12:37:55Z</time>
      </trkpt>
      <trkpt lat="42.780191" lon="-0.508028">
        <ele>1521.539</ele>
        <time>2021-04-29T12:38:35Z</time>
      </trkpt>
      <trkpt lat="42.779293" lon="-0.507943">
        <ele>1508.101</ele>
        <time>2021-04-29T12:39:15Z</time>
      </trkpt>
      <trkpt lat="42.779629" lon="-0.506980">
        <ele>1481.121</ele>
        <time>2021-04-29T12:39:55Z</time>
      </trkpt>
      <trkpt lat="42.779542" lon="-0.507050">
        <ele>1481.608</ele>
        <time>2021-04-29T12:40:35Z</time>
      </trkpt>
      <trkpt lat="42.779166" lon="-0.506556">
        <ele>1463.050</ele>
        <time>2021-04-29T12:41:15Z</time>
      </trkpt>
      <trkpt lat="42.778957" lon="-0.506515">
        <ele>1459.244</ele>
        <time>2021-04-29T12:41:55Z</time>
      </trkpt>
      <trkpt lat="42.778287" lon="-0.507017">
        <ele>1454.180</ele>
        <time>2021-04-29T12:42:35Z</time>
      </trkpt>
      <trkpt lat="42.778235" lon="-0.506327">
        <ele>1435.595</ele>
        <time>2021-04-29T12:43:15Z</time>
      </trkpt>
      <trkpt lat="42.778121" lon="-0.506605">
        <ele>1434.911</ele>
        <time>2021-04-29T12:43:55Z</time>
      </trkpt>
      <trkpt lat="42.777890" lon="-0.506736">
        <ele>1430.042</ele>
        <time>2021-04-29T12:44:35Z</time>
      </trkpt>
      <trkpt lat="42.777869" lon="-0.506506">
        <ele>1424.770</ele>
        <time>2021-04-29T12:45:15Z</time>
      </trkpt>
      <trkpt lat="42.777401" lon="-0.507059">
        <ele>1417.116</ele>
        <time>2021-04-29T12:45:55Z</time>
      </trkpt>
      <trkpt lat="42.777256" lon="-0.507056">
        <ele>1409.966</ele>
        <time>2021-04-29T12:46:35Z</time>
      </trkpt>
      <trkpt lat="42.777148" lon="-0.506732">
        <ele>1402.429</ele>
        <time>2021-04-29T12:47:15Z</time>
      </trkpt>
      <trkpt lat="42.776201" lon="-0.507679">
        <ele>1384.821</ele>
        <time>2021-04-29T12:47:55Z</time>
      </trkpt>
      <trkpt lat="42.775948" lon="-0.508557">
        <ele>1373.308</ele>
        <time>2021-04-29T12:48:35Z</time>
      </trkpt>
      <trkpt lat="42.776126" lon="-0.509570">
        <ele>1372.933</ele>
        <time>2021-04-29T12:49:15Z</time>
      </trkpt>
      <trkpt lat="42.776661" lon="-0.511079">
        <ele>1382.077</ele>
        <time>2021-04-29T12:49:55Z</time>
      </trkpt>
      <trkpt lat="42.776787" lon="-0.512085">
        <ele>1378.593</ele>
        <time>2021-04-29T12:50:35Z</time>
      </trkpt>
      <trkpt lat="42.776655" lon="-0.512707">
        <ele>1374.818</ele>
        <time>2021-04-29T12:51:15Z</time>
      </trkpt>
      <trkpt lat="42.776206" lon="-0.512823">
        <ele>1365.894</ele>
        <time>2021-04-29T12:51:55Z</time>
      </trkpt>
      <trkpt lat="42.775846" lon="-0.512545">
        <ele>1367.855</ele>
        <time>2021-04-29T12:52:35Z</time>
      </trkpt>
      <trkpt lat="42.775882" lon="-0.512262">
        <ele>1365.743</ele>
        <time>2021-04-29T12:53:15Z</time>
      </trkpt>
    </trkseg>
  </trk>
</gpx>
